<?xml version="1.0" encoding="UTF-8" standalone="no" ?>
<gpx xmlns="http://www.topografix.com/GPX/1/1" xmlns:xsi="http://www.w3.org/2001/XMLSchema-instance" xsi:schemaLocation="http://www.topografix.com/GPX/1/1 http://www.topografix.com/GPX/1/1/gpx.xsd" version="1.1" creator="VisuGPX - https://www.visugpx.com">
  <metadata>
    <name>83-cd-2011-23-01-Régusse-Bois des Collocations-03-2011</name>
    <desc><![CDATA[Régusse-Bois des Collocations]]></desc>
  </metadata>
  <trk>
    <name><![CDATA[JAN-23-11 14-49-06]]></name>
    <trkseg>
      <trkpt lat="43.65967" lon="6.13049">
        <ele>546</ele>
        <time>2011-01-23T08:42:54Z</time>
      </trkpt>
      <trkpt lat="43.65967" lon="6.13049">
        <ele>542</ele>
        <time>2011-01-23T08:42:55Z</time>
      </trkpt>
      <trkpt lat="43.65967" lon="6.13049">
        <ele>540</ele>
        <time>2011-01-23T08:42:57Z</time>
      </trkpt>
      <trkpt lat="43.65967" lon="6.13049">
        <ele>540</ele>
        <time>2011-01-23T08:43:46Z</time>
      </trkpt>
      <trkpt lat="43.65968" lon="6.1305">
        <ele>541</ele>
        <time>2011-01-23T08:44:33Z</time>
      </trkpt>
      <trkpt lat="43.65968" lon="6.13049">
        <ele>541</ele>
        <time>2011-01-23T08:45:05Z</time>
      </trkpt>
      <trkpt lat="43.65968" lon="6.13049">
        <ele>541</ele>
        <time>2011-01-23T08:45:46Z</time>
      </trkpt>
      <trkpt lat="43.65968" lon="6.13049">
        <ele>546</ele>
        <time>2011-01-23T08:46:34Z</time>
      </trkpt>
      <trkpt lat="43.65968" lon="6.13049">
        <ele>542</ele>
        <time>2011-01-23T08:46:35Z</time>
      </trkpt>
      <trkpt lat="43.65968" lon="6.13049">
        <ele>538</ele>
        <time>2011-01-23T08:47:15Z</time>
      </trkpt>
      <trkpt lat="43.65968" lon="6.13049">
        <ele>541</ele>
        <time>2011-01-23T08:47:16Z</time>
      </trkpt>
      <trkpt lat="43.65968" lon="6.13049">
        <ele>535</ele>
        <time>2011-01-23T08:47:17Z</time>
      </trkpt>
      <trkpt lat="43.65968" lon="6.13049">
        <ele>539</ele>
        <time>2011-01-23T08:47:18Z</time>
      </trkpt>
      <trkpt lat="43.65968" lon="6.13049">
        <ele>541</ele>
        <time>2011-01-23T08:47:20Z</time>
      </trkpt>
      <trkpt lat="43.65964" lon="6.13049">
        <ele>541</ele>
        <time>2011-01-23T08:47:34Z</time>
      </trkpt>
      <trkpt lat="43.65963" lon="6.13048">
        <ele>542</ele>
        <time>2011-01-23T08:48:43Z</time>
      </trkpt>
      <trkpt lat="43.65963" lon="6.13047">
        <ele>541</ele>
        <time>2011-01-23T08:49:11Z</time>
      </trkpt>
      <trkpt lat="43.65964" lon="6.13047">
        <ele>541</ele>
        <time>2011-01-23T08:49:22Z</time>
      </trkpt>
      <trkpt lat="43.65967" lon="6.13057">
        <ele>542</ele>
        <time>2011-01-23T08:49:33Z</time>
      </trkpt>
      <trkpt lat="43.65967" lon="6.13063">
        <ele>541</ele>
        <time>2011-01-23T08:49:37Z</time>
      </trkpt>
      <trkpt lat="43.65969" lon="6.13066">
        <ele>541</ele>
        <time>2011-01-23T08:49:39Z</time>
      </trkpt>
      <trkpt lat="43.65968" lon="6.13071">
        <ele>542</ele>
        <time>2011-01-23T08:49:42Z</time>
      </trkpt>
      <trkpt lat="43.65969" lon="6.13076">
        <ele>541</ele>
        <time>2011-01-23T08:49:46Z</time>
      </trkpt>
      <trkpt lat="43.6597" lon="6.1308">
        <ele>542</ele>
        <time>2011-01-23T08:49:49Z</time>
      </trkpt>
      <trkpt lat="43.65972" lon="6.13095">
        <ele>541</ele>
        <time>2011-01-23T08:49:59Z</time>
      </trkpt>
      <trkpt lat="43.65973" lon="6.13112">
        <ele>543</ele>
        <time>2011-01-23T08:50:11Z</time>
      </trkpt>
      <trkpt lat="43.65973" lon="6.13117">
        <ele>542</ele>
        <time>2011-01-23T08:50:14Z</time>
      </trkpt>
      <trkpt lat="43.65972" lon="6.13136">
        <ele>542</ele>
        <time>2011-01-23T08:50:25Z</time>
      </trkpt>
      <trkpt lat="43.65973" lon="6.13146">
        <ele>542</ele>
        <time>2011-01-23T08:50:35Z</time>
      </trkpt>
      <trkpt lat="43.65972" lon="6.13166">
        <ele>542</ele>
        <time>2011-01-23T08:50:45Z</time>
      </trkpt>
      <trkpt lat="43.65971" lon="6.1317">
        <ele>542</ele>
        <time>2011-01-23T08:50:47Z</time>
      </trkpt>
      <trkpt lat="43.65972" lon="6.13183">
        <ele>543</ele>
        <time>2011-01-23T08:50:55Z</time>
      </trkpt>
      <trkpt lat="43.65974" lon="6.13197">
        <ele>542</ele>
        <time>2011-01-23T08:51:04Z</time>
      </trkpt>
      <trkpt lat="43.65975" lon="6.13206">
        <ele>544</ele>
        <time>2011-01-23T08:51:07Z</time>
      </trkpt>
      <trkpt lat="43.65977" lon="6.13215">
        <ele>543</ele>
        <time>2011-01-23T08:51:13Z</time>
      </trkpt>
      <trkpt lat="43.65973" lon="6.13233">
        <ele>542</ele>
        <time>2011-01-23T08:51:25Z</time>
      </trkpt>
      <trkpt lat="43.65969" lon="6.13258">
        <ele>542</ele>
        <time>2011-01-23T08:51:39Z</time>
      </trkpt>
      <trkpt lat="43.6597" lon="6.13275">
        <ele>543</ele>
        <time>2011-01-23T08:51:50Z</time>
      </trkpt>
      <trkpt lat="43.6597" lon="6.13277">
        <ele>543</ele>
        <time>2011-01-23T08:51:51Z</time>
      </trkpt>
      <trkpt lat="43.65972" lon="6.13281">
        <ele>543</ele>
        <time>2011-01-23T08:51:54Z</time>
      </trkpt>
      <trkpt lat="43.65974" lon="6.13295">
        <ele>542</ele>
        <time>2011-01-23T08:52:04Z</time>
      </trkpt>
      <trkpt lat="43.65975" lon="6.13299">
        <ele>543</ele>
        <time>2011-01-23T08:52:07Z</time>
      </trkpt>
      <trkpt lat="43.65976" lon="6.13324">
        <ele>542</ele>
        <time>2011-01-23T08:52:21Z</time>
      </trkpt>
      <trkpt lat="43.65974" lon="6.13347">
        <ele>543</ele>
        <time>2011-01-23T08:52:36Z</time>
      </trkpt>
      <trkpt lat="43.65972" lon="6.13364">
        <ele>542</ele>
        <time>2011-01-23T08:52:47Z</time>
      </trkpt>
      <trkpt lat="43.65971" lon="6.13374">
        <ele>543</ele>
        <time>2011-01-23T08:52:53Z</time>
      </trkpt>
      <trkpt lat="43.65972" lon="6.13395">
        <ele>543</ele>
        <time>2011-01-23T08:53:05Z</time>
      </trkpt>
      <trkpt lat="43.65974" lon="6.1341">
        <ele>543</ele>
        <time>2011-01-23T08:53:16Z</time>
      </trkpt>
      <trkpt lat="43.65974" lon="6.13425">
        <ele>543</ele>
        <time>2011-01-23T08:53:24Z</time>
      </trkpt>
      <trkpt lat="43.65984" lon="6.13447">
        <ele>544</ele>
        <time>2011-01-23T08:53:39Z</time>
      </trkpt>
      <trkpt lat="43.65983" lon="6.13454">
        <ele>544</ele>
        <time>2011-01-23T08:53:44Z</time>
      </trkpt>
      <trkpt lat="43.65984" lon="6.13469">
        <ele>544</ele>
        <time>2011-01-23T08:53:53Z</time>
      </trkpt>
      <trkpt lat="43.65983" lon="6.13489">
        <ele>544</ele>
        <time>2011-01-23T08:54:05Z</time>
      </trkpt>
      <trkpt lat="43.65981" lon="6.13507">
        <ele>544</ele>
        <time>2011-01-23T08:54:16Z</time>
      </trkpt>
      <trkpt lat="43.65977" lon="6.13532">
        <ele>543</ele>
        <time>2011-01-23T08:54:30Z</time>
      </trkpt>
      <trkpt lat="43.65967" lon="6.1355">
        <ele>543</ele>
        <time>2011-01-23T08:54:45Z</time>
      </trkpt>
      <trkpt lat="43.65959" lon="6.13566">
        <ele>542</ele>
        <time>2011-01-23T08:54:57Z</time>
      </trkpt>
      <trkpt lat="43.65951" lon="6.13588">
        <ele>541</ele>
        <time>2011-01-23T08:55:10Z</time>
      </trkpt>
      <trkpt lat="43.65946" lon="6.13599">
        <ele>540</ele>
        <time>2011-01-23T08:55:19Z</time>
      </trkpt>
      <trkpt lat="43.65941" lon="6.13613">
        <ele>538</ele>
        <time>2011-01-23T08:55:32Z</time>
      </trkpt>
      <trkpt lat="43.65933" lon="6.13625">
        <ele>536</ele>
        <time>2011-01-23T08:55:43Z</time>
      </trkpt>
      <trkpt lat="43.65929" lon="6.13632">
        <ele>535</ele>
        <time>2011-01-23T08:55:57Z</time>
      </trkpt>
      <trkpt lat="43.65926" lon="6.1364">
        <ele>534</ele>
        <time>2011-01-23T08:56:08Z</time>
      </trkpt>
      <trkpt lat="43.65927" lon="6.13649">
        <ele>534</ele>
        <time>2011-01-23T08:56:16Z</time>
      </trkpt>
      <trkpt lat="43.65928" lon="6.13652">
        <ele>534</ele>
        <time>2011-01-23T08:56:18Z</time>
      </trkpt>
      <trkpt lat="43.65938" lon="6.13666">
        <ele>535</ele>
        <time>2011-01-23T08:56:30Z</time>
      </trkpt>
      <trkpt lat="43.65939" lon="6.13667">
        <ele>535</ele>
        <time>2011-01-23T08:56:32Z</time>
      </trkpt>
      <trkpt lat="43.6594" lon="6.1367">
        <ele>536</ele>
        <time>2011-01-23T08:56:34Z</time>
      </trkpt>
      <trkpt lat="43.65942" lon="6.13674">
        <ele>536</ele>
        <time>2011-01-23T08:56:37Z</time>
      </trkpt>
      <trkpt lat="43.65946" lon="6.13681">
        <ele>537</ele>
        <time>2011-01-23T08:56:43Z</time>
      </trkpt>
      <trkpt lat="43.65954" lon="6.13704">
        <ele>537</ele>
        <time>2011-01-23T08:56:59Z</time>
      </trkpt>
      <trkpt lat="43.65955" lon="6.13706">
        <ele>537</ele>
        <time>2011-01-23T08:57:00Z</time>
      </trkpt>
      <trkpt lat="43.65958" lon="6.1373">
        <ele>538</ele>
        <time>2011-01-23T08:57:15Z</time>
      </trkpt>
      <trkpt lat="43.65967" lon="6.13748">
        <ele>539</ele>
        <time>2011-01-23T08:57:29Z</time>
      </trkpt>
      <trkpt lat="43.6597" lon="6.13753">
        <ele>539</ele>
        <time>2011-01-23T08:57:33Z</time>
      </trkpt>
      <trkpt lat="43.65977" lon="6.13772">
        <ele>541</ele>
        <time>2011-01-23T08:57:48Z</time>
      </trkpt>
      <trkpt lat="43.65987" lon="6.13786">
        <ele>543</ele>
        <time>2011-01-23T08:58:03Z</time>
      </trkpt>
      <trkpt lat="43.65998" lon="6.13803">
        <ele>544</ele>
        <time>2011-01-23T08:58:19Z</time>
      </trkpt>
      <trkpt lat="43.66002" lon="6.13808">
        <ele>545</ele>
        <time>2011-01-23T08:58:25Z</time>
      </trkpt>
      <trkpt lat="43.66016" lon="6.13822">
        <ele>546</ele>
        <time>2011-01-23T08:58:40Z</time>
      </trkpt>
      <trkpt lat="43.6602" lon="6.13825">
        <ele>546</ele>
        <time>2011-01-23T08:58:43Z</time>
      </trkpt>
      <trkpt lat="43.66038" lon="6.13842">
        <ele>547</ele>
        <time>2011-01-23T08:59:02Z</time>
      </trkpt>
      <trkpt lat="43.66054" lon="6.1386">
        <ele>547</ele>
        <time>2011-01-23T08:59:18Z</time>
      </trkpt>
      <trkpt lat="43.66061" lon="6.13872">
        <ele>548</ele>
        <time>2011-01-23T08:59:31Z</time>
      </trkpt>
      <trkpt lat="43.66078" lon="6.13879">
        <ele>549</ele>
        <time>2011-01-23T08:59:45Z</time>
      </trkpt>
      <trkpt lat="43.66092" lon="6.13886">
        <ele>548</ele>
        <time>2011-01-23T08:59:58Z</time>
      </trkpt>
      <trkpt lat="43.66107" lon="6.13892">
        <ele>548</ele>
        <time>2011-01-23T09:00:11Z</time>
      </trkpt>
      <trkpt lat="43.66126" lon="6.13897">
        <ele>548</ele>
        <time>2011-01-23T09:00:26Z</time>
      </trkpt>
      <trkpt lat="43.66131" lon="6.13898">
        <ele>548</ele>
        <time>2011-01-23T09:00:29Z</time>
      </trkpt>
      <trkpt lat="43.66145" lon="6.13902">
        <ele>547</ele>
        <time>2011-01-23T09:00:41Z</time>
      </trkpt>
      <trkpt lat="43.66159" lon="6.13907">
        <ele>549</ele>
        <time>2011-01-23T09:00:53Z</time>
      </trkpt>
      <trkpt lat="43.66175" lon="6.13913">
        <ele>550</ele>
        <time>2011-01-23T09:01:07Z</time>
      </trkpt>
      <trkpt lat="43.66185" lon="6.13918">
        <ele>550</ele>
        <time>2011-01-23T09:01:15Z</time>
      </trkpt>
      <trkpt lat="43.6619" lon="6.13922">
        <ele>549</ele>
        <time>2011-01-23T09:01:20Z</time>
      </trkpt>
      <trkpt lat="43.66191" lon="6.13922">
        <ele>549</ele>
        <time>2011-01-23T09:01:21Z</time>
      </trkpt>
      <trkpt lat="43.66196" lon="6.13924">
        <ele>549</ele>
        <time>2011-01-23T09:01:25Z</time>
      </trkpt>
      <trkpt lat="43.66199" lon="6.13926">
        <ele>551</ele>
        <time>2011-01-23T09:01:27Z</time>
      </trkpt>
      <trkpt lat="43.66204" lon="6.13927">
        <ele>550</ele>
        <time>2011-01-23T09:01:32Z</time>
      </trkpt>
      <trkpt lat="43.66208" lon="6.13929">
        <ele>549</ele>
        <time>2011-01-23T09:01:35Z</time>
      </trkpt>
      <trkpt lat="43.66219" lon="6.13939">
        <ele>550</ele>
        <time>2011-01-23T09:01:48Z</time>
      </trkpt>
      <trkpt lat="43.66228" lon="6.13946">
        <ele>550</ele>
        <time>2011-01-23T09:01:58Z</time>
      </trkpt>
      <trkpt lat="43.66245" lon="6.13956">
        <ele>550</ele>
        <time>2011-01-23T09:02:13Z</time>
      </trkpt>
      <trkpt lat="43.66253" lon="6.13964">
        <ele>551</ele>
        <time>2011-01-23T09:02:21Z</time>
      </trkpt>
      <trkpt lat="43.66265" lon="6.1397">
        <ele>552</ele>
        <time>2011-01-23T09:02:30Z</time>
      </trkpt>
      <trkpt lat="43.66271" lon="6.13973">
        <ele>550</ele>
        <time>2011-01-23T09:02:36Z</time>
      </trkpt>
      <trkpt lat="43.66282" lon="6.13982">
        <ele>551</ele>
        <time>2011-01-23T09:02:47Z</time>
      </trkpt>
      <trkpt lat="43.66297" lon="6.13992">
        <ele>552</ele>
        <time>2011-01-23T09:03:00Z</time>
      </trkpt>
      <trkpt lat="43.66303" lon="6.13994">
        <ele>552</ele>
        <time>2011-01-23T09:03:04Z</time>
      </trkpt>
      <trkpt lat="43.66319" lon="6.14005">
        <ele>552</ele>
        <time>2011-01-23T09:03:18Z</time>
      </trkpt>
      <trkpt lat="43.66328" lon="6.14009">
        <ele>551</ele>
        <time>2011-01-23T09:03:25Z</time>
      </trkpt>
      <trkpt lat="43.66336" lon="6.14014">
        <ele>553</ele>
        <time>2011-01-23T09:03:32Z</time>
      </trkpt>
      <trkpt lat="43.66341" lon="6.14019">
        <ele>551</ele>
        <time>2011-01-23T09:03:39Z</time>
      </trkpt>
      <trkpt lat="43.66354" lon="6.14029">
        <ele>552</ele>
        <time>2011-01-23T09:03:51Z</time>
      </trkpt>
      <trkpt lat="43.66366" lon="6.14041">
        <ele>552</ele>
        <time>2011-01-23T09:04:03Z</time>
      </trkpt>
      <trkpt lat="43.66368" lon="6.14045">
        <ele>553</ele>
        <time>2011-01-23T09:04:07Z</time>
      </trkpt>
      <trkpt lat="43.66371" lon="6.14051">
        <ele>553</ele>
        <time>2011-01-23T09:04:11Z</time>
      </trkpt>
      <trkpt lat="43.66375" lon="6.14057">
        <ele>553</ele>
        <time>2011-01-23T09:04:17Z</time>
      </trkpt>
      <trkpt lat="43.66383" lon="6.14071">
        <ele>555</ele>
        <time>2011-01-23T09:04:28Z</time>
      </trkpt>
      <trkpt lat="43.66388" lon="6.14078">
        <ele>555</ele>
        <time>2011-01-23T09:04:35Z</time>
      </trkpt>
      <trkpt lat="43.66391" lon="6.14086">
        <ele>555</ele>
        <time>2011-01-23T09:04:43Z</time>
      </trkpt>
      <trkpt lat="43.66397" lon="6.14098">
        <ele>555</ele>
        <time>2011-01-23T09:04:53Z</time>
      </trkpt>
      <trkpt lat="43.66401" lon="6.14104">
        <ele>555</ele>
        <time>2011-01-23T09:04:58Z</time>
      </trkpt>
      <trkpt lat="43.66404" lon="6.14114">
        <ele>555</ele>
        <time>2011-01-23T09:05:04Z</time>
      </trkpt>
      <trkpt lat="43.66408" lon="6.14123">
        <ele>556</ele>
        <time>2011-01-23T09:05:11Z</time>
      </trkpt>
      <trkpt lat="43.66411" lon="6.14129">
        <ele>556</ele>
        <time>2011-01-23T09:05:16Z</time>
      </trkpt>
      <trkpt lat="43.6642" lon="6.14137">
        <ele>557</ele>
        <time>2011-01-23T09:05:23Z</time>
      </trkpt>
      <trkpt lat="43.66432" lon="6.14145">
        <ele>557</ele>
        <time>2011-01-23T09:05:30Z</time>
      </trkpt>
      <trkpt lat="43.66441" lon="6.14151">
        <ele>557</ele>
        <time>2011-01-23T09:05:37Z</time>
      </trkpt>
      <trkpt lat="43.66454" lon="6.14166">
        <ele>557</ele>
        <time>2011-01-23T09:05:49Z</time>
      </trkpt>
      <trkpt lat="43.66464" lon="6.1418">
        <ele>558</ele>
        <time>2011-01-23T09:06:02Z</time>
      </trkpt>
      <trkpt lat="43.66464" lon="6.14182">
        <ele>557</ele>
        <time>2011-01-23T09:06:03Z</time>
      </trkpt>
      <trkpt lat="43.66466" lon="6.14188">
        <ele>558</ele>
        <time>2011-01-23T09:06:09Z</time>
      </trkpt>
      <trkpt lat="43.66476" lon="6.14196">
        <ele>558</ele>
        <time>2011-01-23T09:06:21Z</time>
      </trkpt>
      <trkpt lat="43.6648" lon="6.14198">
        <ele>558</ele>
        <time>2011-01-23T09:06:28Z</time>
      </trkpt>
      <trkpt lat="43.6649" lon="6.14214">
        <ele>558</ele>
        <time>2011-01-23T09:06:40Z</time>
      </trkpt>
      <trkpt lat="43.66495" lon="6.1422">
        <ele>557</ele>
        <time>2011-01-23T09:06:46Z</time>
      </trkpt>
      <trkpt lat="43.66497" lon="6.14226">
        <ele>557</ele>
        <time>2011-01-23T09:06:51Z</time>
      </trkpt>
      <trkpt lat="43.66505" lon="6.14242">
        <ele>558</ele>
        <time>2011-01-23T09:07:04Z</time>
      </trkpt>
      <trkpt lat="43.66519" lon="6.14256">
        <ele>558</ele>
        <time>2011-01-23T09:07:16Z</time>
      </trkpt>
      <trkpt lat="43.66524" lon="6.14261">
        <ele>557</ele>
        <time>2011-01-23T09:07:21Z</time>
      </trkpt>
      <trkpt lat="43.66528" lon="6.14267">
        <ele>557</ele>
        <time>2011-01-23T09:07:26Z</time>
      </trkpt>
      <trkpt lat="43.66536" lon="6.14276">
        <ele>557</ele>
        <time>2011-01-23T09:07:37Z</time>
      </trkpt>
      <trkpt lat="43.66538" lon="6.14277">
        <ele>557</ele>
        <time>2011-01-23T09:07:39Z</time>
      </trkpt>
      <trkpt lat="43.6655" lon="6.14285">
        <ele>558</ele>
        <time>2011-01-23T09:07:50Z</time>
      </trkpt>
      <trkpt lat="43.66559" lon="6.1429">
        <ele>558</ele>
        <time>2011-01-23T09:08:01Z</time>
      </trkpt>
      <trkpt lat="43.66572" lon="6.143">
        <ele>558</ele>
        <time>2011-01-23T09:08:12Z</time>
      </trkpt>
      <trkpt lat="43.66585" lon="6.14304">
        <ele>558</ele>
        <time>2011-01-23T09:08:22Z</time>
      </trkpt>
      <trkpt lat="43.66586" lon="6.14305">
        <ele>558</ele>
        <time>2011-01-23T09:08:23Z</time>
      </trkpt>
      <trkpt lat="43.66586" lon="6.14307">
        <ele>559</ele>
        <time>2011-01-23T09:08:37Z</time>
      </trkpt>
      <trkpt lat="43.66594" lon="6.14308">
        <ele>559</ele>
        <time>2011-01-23T09:08:56Z</time>
      </trkpt>
      <trkpt lat="43.66604" lon="6.14309">
        <ele>559</ele>
        <time>2011-01-23T09:09:06Z</time>
      </trkpt>
      <trkpt lat="43.66615" lon="6.14312">
        <ele>560</ele>
        <time>2011-01-23T09:09:17Z</time>
      </trkpt>
      <trkpt lat="43.66622" lon="6.14323">
        <ele>561</ele>
        <time>2011-01-23T09:09:28Z</time>
      </trkpt>
      <trkpt lat="43.66627" lon="6.14331">
        <ele>562</ele>
        <time>2011-01-23T09:09:37Z</time>
      </trkpt>
      <trkpt lat="43.6663" lon="6.1434">
        <ele>562</ele>
        <time>2011-01-23T09:09:45Z</time>
      </trkpt>
      <trkpt lat="43.66638" lon="6.14351">
        <ele>563</ele>
        <time>2011-01-23T09:09:56Z</time>
      </trkpt>
      <trkpt lat="43.6664" lon="6.14354">
        <ele>563</ele>
        <time>2011-01-23T09:09:59Z</time>
      </trkpt>
      <trkpt lat="43.66647" lon="6.14361">
        <ele>563</ele>
        <time>2011-01-23T09:10:09Z</time>
      </trkpt>
      <trkpt lat="43.66657" lon="6.1437">
        <ele>564</ele>
        <time>2011-01-23T09:10:20Z</time>
      </trkpt>
      <trkpt lat="43.66662" lon="6.14374">
        <ele>564</ele>
        <time>2011-01-23T09:10:25Z</time>
      </trkpt>
      <trkpt lat="43.66671" lon="6.14383">
        <ele>565</ele>
        <time>2011-01-23T09:10:35Z</time>
      </trkpt>
      <trkpt lat="43.66677" lon="6.14387">
        <ele>565</ele>
        <time>2011-01-23T09:10:42Z</time>
      </trkpt>
      <trkpt lat="43.6668" lon="6.14392">
        <ele>566</ele>
        <time>2011-01-23T09:10:47Z</time>
      </trkpt>
      <trkpt lat="43.66687" lon="6.14403">
        <ele>566</ele>
        <time>2011-01-23T09:10:57Z</time>
      </trkpt>
      <trkpt lat="43.66688" lon="6.14404">
        <ele>565</ele>
        <time>2011-01-23T09:10:58Z</time>
      </trkpt>
      <trkpt lat="43.66689" lon="6.14407">
        <ele>566</ele>
        <time>2011-01-23T09:11:01Z</time>
      </trkpt>
      <trkpt lat="43.667" lon="6.14422">
        <ele>566</ele>
        <time>2011-01-23T09:11:15Z</time>
      </trkpt>
      <trkpt lat="43.66701" lon="6.14425">
        <ele>566</ele>
        <time>2011-01-23T09:11:18Z</time>
      </trkpt>
      <trkpt lat="43.66705" lon="6.14429">
        <ele>566</ele>
        <time>2011-01-23T09:11:22Z</time>
      </trkpt>
      <trkpt lat="43.66718" lon="6.1444">
        <ele>566</ele>
        <time>2011-01-23T09:11:35Z</time>
      </trkpt>
      <trkpt lat="43.66725" lon="6.14447">
        <ele>566</ele>
        <time>2011-01-23T09:11:43Z</time>
      </trkpt>
      <trkpt lat="43.66734" lon="6.14454">
        <ele>566</ele>
        <time>2011-01-23T09:11:53Z</time>
      </trkpt>
      <trkpt lat="43.66739" lon="6.14467">
        <ele>566</ele>
        <time>2011-01-23T09:12:04Z</time>
      </trkpt>
      <trkpt lat="43.6674" lon="6.14468">
        <ele>566</ele>
        <time>2011-01-23T09:12:05Z</time>
      </trkpt>
      <trkpt lat="43.66743" lon="6.14469">
        <ele>566</ele>
        <time>2011-01-23T09:12:07Z</time>
      </trkpt>
      <trkpt lat="43.66758" lon="6.14484">
        <ele>566</ele>
        <time>2011-01-23T09:12:20Z</time>
      </trkpt>
      <trkpt lat="43.66762" lon="6.1449">
        <ele>566</ele>
        <time>2011-01-23T09:12:28Z</time>
      </trkpt>
      <trkpt lat="43.66769" lon="6.14499">
        <ele>566</ele>
        <time>2011-01-23T09:12:37Z</time>
      </trkpt>
      <trkpt lat="43.6677" lon="6.145">
        <ele>566</ele>
        <time>2011-01-23T09:12:38Z</time>
      </trkpt>
      <trkpt lat="43.66784" lon="6.14508">
        <ele>567</ele>
        <time>2011-01-23T09:12:49Z</time>
      </trkpt>
      <trkpt lat="43.66792" lon="6.14514">
        <ele>566</ele>
        <time>2011-01-23T09:12:55Z</time>
      </trkpt>
      <trkpt lat="43.66798" lon="6.14515">
        <ele>566</ele>
        <time>2011-01-23T09:12:58Z</time>
      </trkpt>
      <trkpt lat="43.66807" lon="6.1452">
        <ele>567</ele>
        <time>2011-01-23T09:13:04Z</time>
      </trkpt>
      <trkpt lat="43.66812" lon="6.14524">
        <ele>567</ele>
        <time>2011-01-23T09:13:08Z</time>
      </trkpt>
      <trkpt lat="43.66819" lon="6.14535">
        <ele>567</ele>
        <time>2011-01-23T09:13:18Z</time>
      </trkpt>
      <trkpt lat="43.66825" lon="6.14544">
        <ele>568</ele>
        <time>2011-01-23T09:13:26Z</time>
      </trkpt>
      <trkpt lat="43.66836" lon="6.14558">
        <ele>567</ele>
        <time>2011-01-23T09:13:37Z</time>
      </trkpt>
      <trkpt lat="43.66838" lon="6.1456">
        <ele>568</ele>
        <time>2011-01-23T09:13:41Z</time>
      </trkpt>
      <trkpt lat="43.66843" lon="6.14566">
        <ele>568</ele>
        <time>2011-01-23T09:13:49Z</time>
      </trkpt>
      <trkpt lat="43.66851" lon="6.14578">
        <ele>567</ele>
        <time>2011-01-23T09:14:00Z</time>
      </trkpt>
      <trkpt lat="43.66863" lon="6.14589">
        <ele>567</ele>
        <time>2011-01-23T09:14:11Z</time>
      </trkpt>
      <trkpt lat="43.66873" lon="6.14596">
        <ele>567</ele>
        <time>2011-01-23T09:14:18Z</time>
      </trkpt>
      <trkpt lat="43.66882" lon="6.14602">
        <ele>566</ele>
        <time>2011-01-23T09:14:23Z</time>
      </trkpt>
      <trkpt lat="43.66885" lon="6.1461">
        <ele>566</ele>
        <time>2011-01-23T09:14:29Z</time>
      </trkpt>
      <trkpt lat="43.66892" lon="6.14622">
        <ele>566</ele>
        <time>2011-01-23T09:14:40Z</time>
      </trkpt>
      <trkpt lat="43.66902" lon="6.1463">
        <ele>565</ele>
        <time>2011-01-23T09:14:49Z</time>
      </trkpt>
      <trkpt lat="43.66904" lon="6.14632">
        <ele>565</ele>
        <time>2011-01-23T09:14:51Z</time>
      </trkpt>
      <trkpt lat="43.66911" lon="6.14642">
        <ele>564</ele>
        <time>2011-01-23T09:15:01Z</time>
      </trkpt>
      <trkpt lat="43.66914" lon="6.14645">
        <ele>564</ele>
        <time>2011-01-23T09:15:04Z</time>
      </trkpt>
      <trkpt lat="43.66925" lon="6.1465">
        <ele>564</ele>
        <time>2011-01-23T09:15:15Z</time>
      </trkpt>
      <trkpt lat="43.66935" lon="6.14658">
        <ele>563</ele>
        <time>2011-01-23T09:15:25Z</time>
      </trkpt>
      <trkpt lat="43.66945" lon="6.14671">
        <ele>564</ele>
        <time>2011-01-23T09:15:34Z</time>
      </trkpt>
      <trkpt lat="43.66948" lon="6.14674">
        <ele>564</ele>
        <time>2011-01-23T09:15:37Z</time>
      </trkpt>
      <trkpt lat="43.6695" lon="6.14677">
        <ele>563</ele>
        <time>2011-01-23T09:15:39Z</time>
      </trkpt>
      <trkpt lat="43.66958" lon="6.14685">
        <ele>563</ele>
        <time>2011-01-23T09:15:46Z</time>
      </trkpt>
      <trkpt lat="43.66973" lon="6.14698">
        <ele>564</ele>
        <time>2011-01-23T09:16:02Z</time>
      </trkpt>
      <trkpt lat="43.66978" lon="6.14701">
        <ele>564</ele>
        <time>2011-01-23T09:16:05Z</time>
      </trkpt>
      <trkpt lat="43.6699" lon="6.14713">
        <ele>564</ele>
        <time>2011-01-23T09:16:18Z</time>
      </trkpt>
      <trkpt lat="43.67" lon="6.14721">
        <ele>564</ele>
        <time>2011-01-23T09:16:28Z</time>
      </trkpt>
      <trkpt lat="43.67005" lon="6.14724">
        <ele>565</ele>
        <time>2011-01-23T09:16:33Z</time>
      </trkpt>
      <trkpt lat="43.67009" lon="6.14726">
        <ele>564</ele>
        <time>2011-01-23T09:16:36Z</time>
      </trkpt>
      <trkpt lat="43.67011" lon="6.14728">
        <ele>564</ele>
        <time>2011-01-23T09:16:38Z</time>
      </trkpt>
      <trkpt lat="43.67024" lon="6.1474">
        <ele>565</ele>
        <time>2011-01-23T09:16:54Z</time>
      </trkpt>
      <trkpt lat="43.67031" lon="6.14749">
        <ele>565</ele>
        <time>2011-01-23T09:17:03Z</time>
      </trkpt>
      <trkpt lat="43.67033" lon="6.1475">
        <ele>565</ele>
        <time>2011-01-23T09:17:05Z</time>
      </trkpt>
      <trkpt lat="43.67038" lon="6.14754">
        <ele>565</ele>
        <time>2011-01-23T09:17:10Z</time>
      </trkpt>
      <trkpt lat="43.67051" lon="6.14765">
        <ele>566</ele>
        <time>2011-01-23T09:17:23Z</time>
      </trkpt>
      <trkpt lat="43.67053" lon="6.14767">
        <ele>566</ele>
        <time>2011-01-23T09:17:25Z</time>
      </trkpt>
      <trkpt lat="43.67057" lon="6.14772">
        <ele>566</ele>
        <time>2011-01-23T09:17:31Z</time>
      </trkpt>
      <trkpt lat="43.6706" lon="6.14775">
        <ele>566</ele>
        <time>2011-01-23T09:17:34Z</time>
      </trkpt>
      <trkpt lat="43.67066" lon="6.14779">
        <ele>566</ele>
        <time>2011-01-23T09:17:39Z</time>
      </trkpt>
      <trkpt lat="43.67068" lon="6.14783">
        <ele>566</ele>
        <time>2011-01-23T09:17:42Z</time>
      </trkpt>
      <trkpt lat="43.67081" lon="6.1479">
        <ele>566</ele>
        <time>2011-01-23T09:17:54Z</time>
      </trkpt>
      <trkpt lat="43.67084" lon="6.14792">
        <ele>566</ele>
        <time>2011-01-23T09:17:57Z</time>
      </trkpt>
      <trkpt lat="43.67087" lon="6.14795">
        <ele>566</ele>
        <time>2011-01-23T09:18:00Z</time>
      </trkpt>
      <trkpt lat="43.67101" lon="6.14804">
        <ele>565</ele>
        <time>2011-01-23T09:18:11Z</time>
      </trkpt>
      <trkpt lat="43.67104" lon="6.14808">
        <ele>565</ele>
        <time>2011-01-23T09:18:14Z</time>
      </trkpt>
      <trkpt lat="43.67118" lon="6.14824">
        <ele>565</ele>
        <time>2011-01-23T09:18:28Z</time>
      </trkpt>
      <trkpt lat="43.6712" lon="6.14825">
        <ele>564</ele>
        <time>2011-01-23T09:18:29Z</time>
      </trkpt>
      <trkpt lat="43.67137" lon="6.14835">
        <ele>564</ele>
        <time>2011-01-23T09:18:44Z</time>
      </trkpt>
      <trkpt lat="43.67151" lon="6.14841">
        <ele>565</ele>
        <time>2011-01-23T09:18:58Z</time>
      </trkpt>
      <trkpt lat="43.67154" lon="6.14843">
        <ele>565</ele>
        <time>2011-01-23T09:19:02Z</time>
      </trkpt>
      <trkpt lat="43.67156" lon="6.14846">
        <ele>566</ele>
        <time>2011-01-23T09:19:04Z</time>
      </trkpt>
      <trkpt lat="43.67166" lon="6.14854">
        <ele>566</ele>
        <time>2011-01-23T09:19:15Z</time>
      </trkpt>
      <trkpt lat="43.67182" lon="6.14864">
        <ele>565</ele>
        <time>2011-01-23T09:19:27Z</time>
      </trkpt>
      <trkpt lat="43.67197" lon="6.14875">
        <ele>567</ele>
        <time>2011-01-23T09:19:40Z</time>
      </trkpt>
      <trkpt lat="43.67203" lon="6.14884">
        <ele>567</ele>
        <time>2011-01-23T09:19:48Z</time>
      </trkpt>
      <trkpt lat="43.67213" lon="6.14894">
        <ele>567</ele>
        <time>2011-01-23T09:20:00Z</time>
      </trkpt>
      <trkpt lat="43.67226" lon="6.14897">
        <ele>568</ele>
        <time>2011-01-23T09:25:22Z</time>
      </trkpt>
      <trkpt lat="43.67234" lon="6.14905">
        <ele>568</ele>
        <time>2011-01-23T09:25:45Z</time>
      </trkpt>
      <trkpt lat="43.67244" lon="6.14922">
        <ele>569</ele>
        <time>2011-01-23T09:25:57Z</time>
      </trkpt>
      <trkpt lat="43.67253" lon="6.14935">
        <ele>571</ele>
        <time>2011-01-23T09:26:10Z</time>
      </trkpt>
      <trkpt lat="43.67259" lon="6.14945">
        <ele>570</ele>
        <time>2011-01-23T09:26:20Z</time>
      </trkpt>
      <trkpt lat="43.67266" lon="6.14955">
        <ele>571</ele>
        <time>2011-01-23T09:26:31Z</time>
      </trkpt>
      <trkpt lat="43.67276" lon="6.14973">
        <ele>571</ele>
        <time>2011-01-23T09:26:44Z</time>
      </trkpt>
      <trkpt lat="43.67282" lon="6.14986">
        <ele>572</ele>
        <time>2011-01-23T09:26:55Z</time>
      </trkpt>
      <trkpt lat="43.67289" lon="6.14999">
        <ele>572</ele>
        <time>2011-01-23T09:27:07Z</time>
      </trkpt>
      <trkpt lat="43.67291" lon="6.15001">
        <ele>573</ele>
        <time>2011-01-23T09:27:09Z</time>
      </trkpt>
      <trkpt lat="43.673" lon="6.15013">
        <ele>572</ele>
        <time>2011-01-23T09:27:20Z</time>
      </trkpt>
      <trkpt lat="43.67307" lon="6.15026">
        <ele>573</ele>
        <time>2011-01-23T09:27:30Z</time>
      </trkpt>
      <trkpt lat="43.67317" lon="6.15041">
        <ele>574</ele>
        <time>2011-01-23T09:27:44Z</time>
      </trkpt>
      <trkpt lat="43.67323" lon="6.15053">
        <ele>575</ele>
        <time>2011-01-23T09:27:55Z</time>
      </trkpt>
      <trkpt lat="43.67327" lon="6.15059">
        <ele>575</ele>
        <time>2011-01-23T09:28:00Z</time>
      </trkpt>
      <trkpt lat="43.67329" lon="6.15065">
        <ele>575</ele>
        <time>2011-01-23T09:28:04Z</time>
      </trkpt>
      <trkpt lat="43.67334" lon="6.15074">
        <ele>575</ele>
        <time>2011-01-23T09:28:11Z</time>
      </trkpt>
      <trkpt lat="43.67342" lon="6.15088">
        <ele>575</ele>
        <time>2011-01-23T09:28:21Z</time>
      </trkpt>
      <trkpt lat="43.67345" lon="6.15092">
        <ele>575</ele>
        <time>2011-01-23T09:28:25Z</time>
      </trkpt>
      <trkpt lat="43.67346" lon="6.15097">
        <ele>575</ele>
        <time>2011-01-23T09:28:28Z</time>
      </trkpt>
      <trkpt lat="43.67348" lon="6.15102">
        <ele>575</ele>
        <time>2011-01-23T09:28:32Z</time>
      </trkpt>
      <trkpt lat="43.67354" lon="6.15116">
        <ele>576</ele>
        <time>2011-01-23T09:28:42Z</time>
      </trkpt>
      <trkpt lat="43.67362" lon="6.15129">
        <ele>576</ele>
        <time>2011-01-23T09:28:54Z</time>
      </trkpt>
      <trkpt lat="43.67365" lon="6.15133">
        <ele>576</ele>
        <time>2011-01-23T09:28:58Z</time>
      </trkpt>
      <trkpt lat="43.67373" lon="6.15141">
        <ele>576</ele>
        <time>2011-01-23T09:29:08Z</time>
      </trkpt>
      <trkpt lat="43.67375" lon="6.15145">
        <ele>576</ele>
        <time>2011-01-23T09:29:11Z</time>
      </trkpt>
      <trkpt lat="43.67384" lon="6.15159">
        <ele>577</ele>
        <time>2011-01-23T09:29:23Z</time>
      </trkpt>
      <trkpt lat="43.67385" lon="6.1516">
        <ele>576</ele>
        <time>2011-01-23T09:29:24Z</time>
      </trkpt>
      <trkpt lat="43.67392" lon="6.15172">
        <ele>576</ele>
        <time>2011-01-23T09:29:33Z</time>
      </trkpt>
      <trkpt lat="43.67394" lon="6.15175">
        <ele>576</ele>
        <time>2011-01-23T09:29:35Z</time>
      </trkpt>
      <trkpt lat="43.67403" lon="6.15193">
        <ele>577</ele>
        <time>2011-01-23T09:29:47Z</time>
      </trkpt>
      <trkpt lat="43.67405" lon="6.15195">
        <ele>576</ele>
        <time>2011-01-23T09:29:49Z</time>
      </trkpt>
      <trkpt lat="43.67407" lon="6.152">
        <ele>577</ele>
        <time>2011-01-23T09:29:53Z</time>
      </trkpt>
      <trkpt lat="43.67413" lon="6.15211">
        <ele>577</ele>
        <time>2011-01-23T09:30:04Z</time>
      </trkpt>
      <trkpt lat="43.6742" lon="6.1523">
        <ele>577</ele>
        <time>2011-01-23T09:30:15Z</time>
      </trkpt>
      <trkpt lat="43.67425" lon="6.15239">
        <ele>577</ele>
        <time>2011-01-23T09:30:22Z</time>
      </trkpt>
      <trkpt lat="43.67436" lon="6.15253">
        <ele>577</ele>
        <time>2011-01-23T09:30:36Z</time>
      </trkpt>
      <trkpt lat="43.67442" lon="6.15262">
        <ele>578</ele>
        <time>2011-01-23T09:30:44Z</time>
      </trkpt>
      <trkpt lat="43.67454" lon="6.1528">
        <ele>578</ele>
        <time>2011-01-23T09:30:57Z</time>
      </trkpt>
      <trkpt lat="43.67462" lon="6.15291">
        <ele>578</ele>
        <time>2011-01-23T09:31:06Z</time>
      </trkpt>
      <trkpt lat="43.67464" lon="6.15294">
        <ele>579</ele>
        <time>2011-01-23T09:31:08Z</time>
      </trkpt>
      <trkpt lat="43.67474" lon="6.15303">
        <ele>578</ele>
        <time>2011-01-23T09:31:18Z</time>
      </trkpt>
      <trkpt lat="43.6749" lon="6.15316">
        <ele>579</ele>
        <time>2011-01-23T09:31:32Z</time>
      </trkpt>
      <trkpt lat="43.675" lon="6.15327">
        <ele>579</ele>
        <time>2011-01-23T09:31:44Z</time>
      </trkpt>
      <trkpt lat="43.67512" lon="6.15338">
        <ele>579</ele>
        <time>2011-01-23T09:31:55Z</time>
      </trkpt>
      <trkpt lat="43.67522" lon="6.15347">
        <ele>579</ele>
        <time>2011-01-23T09:32:06Z</time>
      </trkpt>
      <trkpt lat="43.67534" lon="6.15358">
        <ele>579</ele>
        <time>2011-01-23T09:32:17Z</time>
      </trkpt>
      <trkpt lat="43.67535" lon="6.15359">
        <ele>579</ele>
        <time>2011-01-23T09:32:18Z</time>
      </trkpt>
      <trkpt lat="43.67546" lon="6.15375">
        <ele>579</ele>
        <time>2011-01-23T09:32:30Z</time>
      </trkpt>
      <trkpt lat="43.67555" lon="6.15383">
        <ele>580</ele>
        <time>2011-01-23T09:32:38Z</time>
      </trkpt>
      <trkpt lat="43.67556" lon="6.15385">
        <ele>579</ele>
        <time>2011-01-23T09:32:40Z</time>
      </trkpt>
      <trkpt lat="43.67566" lon="6.15399">
        <ele>580</ele>
        <time>2011-01-23T09:32:53Z</time>
      </trkpt>
      <trkpt lat="43.67576" lon="6.1541">
        <ele>580</ele>
        <time>2011-01-23T09:33:05Z</time>
      </trkpt>
      <trkpt lat="43.67584" lon="6.15418">
        <ele>580</ele>
        <time>2011-01-23T09:33:15Z</time>
      </trkpt>
      <trkpt lat="43.67594" lon="6.15432">
        <ele>580</ele>
        <time>2011-01-23T09:33:27Z</time>
      </trkpt>
      <trkpt lat="43.676" lon="6.15439">
        <ele>580</ele>
        <time>2011-01-23T09:33:35Z</time>
      </trkpt>
      <trkpt lat="43.67609" lon="6.15452">
        <ele>580</ele>
        <time>2011-01-23T09:33:47Z</time>
      </trkpt>
      <trkpt lat="43.67612" lon="6.15457">
        <ele>581</ele>
        <time>2011-01-23T09:33:55Z</time>
      </trkpt>
      <trkpt lat="43.67625" lon="6.15473">
        <ele>581</ele>
        <time>2011-01-23T09:34:07Z</time>
      </trkpt>
      <trkpt lat="43.67634" lon="6.15482">
        <ele>582</ele>
        <time>2011-01-23T09:34:20Z</time>
      </trkpt>
      <trkpt lat="43.67639" lon="6.1549">
        <ele>582</ele>
        <time>2011-01-23T09:34:29Z</time>
      </trkpt>
      <trkpt lat="43.67644" lon="6.15498">
        <ele>581</ele>
        <time>2011-01-23T09:34:52Z</time>
      </trkpt>
      <trkpt lat="43.67657" lon="6.15502">
        <ele>581</ele>
        <time>2011-01-23T09:35:03Z</time>
      </trkpt>
      <trkpt lat="43.67663" lon="6.15499">
        <ele>581</ele>
        <time>2011-01-23T09:35:08Z</time>
      </trkpt>
      <trkpt lat="43.67666" lon="6.15494">
        <ele>581</ele>
        <time>2011-01-23T09:35:12Z</time>
      </trkpt>
      <trkpt lat="43.67672" lon="6.15483">
        <ele>581</ele>
        <time>2011-01-23T09:35:26Z</time>
      </trkpt>
      <trkpt lat="43.67674" lon="6.1548">
        <ele>580</ele>
        <time>2011-01-23T09:35:29Z</time>
      </trkpt>
      <trkpt lat="43.6768" lon="6.15472">
        <ele>580</ele>
        <time>2011-01-23T09:35:36Z</time>
      </trkpt>
      <trkpt lat="43.67683" lon="6.15469">
        <ele>580</ele>
        <time>2011-01-23T09:35:39Z</time>
      </trkpt>
      <trkpt lat="43.67688" lon="6.1546">
        <ele>580</ele>
        <time>2011-01-23T09:35:48Z</time>
      </trkpt>
      <trkpt lat="43.67693" lon="6.15447">
        <ele>579</ele>
        <time>2011-01-23T09:35:59Z</time>
      </trkpt>
      <trkpt lat="43.67701" lon="6.15431">
        <ele>579</ele>
        <time>2011-01-23T09:36:12Z</time>
      </trkpt>
      <trkpt lat="43.6771" lon="6.15412">
        <ele>578</ele>
        <time>2011-01-23T09:36:27Z</time>
      </trkpt>
      <trkpt lat="43.67714" lon="6.15405">
        <ele>578</ele>
        <time>2011-01-23T09:36:32Z</time>
      </trkpt>
      <trkpt lat="43.67717" lon="6.15384">
        <ele>578</ele>
        <time>2011-01-23T09:36:43Z</time>
      </trkpt>
      <trkpt lat="43.67719" lon="6.15374">
        <ele>577</ele>
        <time>2011-01-23T09:36:50Z</time>
      </trkpt>
      <trkpt lat="43.67722" lon="6.15353">
        <ele>576</ele>
        <time>2011-01-23T09:37:05Z</time>
      </trkpt>
      <trkpt lat="43.67723" lon="6.15343">
        <ele>576</ele>
        <time>2011-01-23T09:37:13Z</time>
      </trkpt>
      <trkpt lat="43.67727" lon="6.15331">
        <ele>575</ele>
        <time>2011-01-23T09:37:23Z</time>
      </trkpt>
      <trkpt lat="43.67731" lon="6.15312">
        <ele>575</ele>
        <time>2011-01-23T09:37:36Z</time>
      </trkpt>
      <trkpt lat="43.67739" lon="6.15293">
        <ele>575</ele>
        <time>2011-01-23T09:37:49Z</time>
      </trkpt>
      <trkpt lat="43.6774" lon="6.15285">
        <ele>575</ele>
        <time>2011-01-23T09:37:53Z</time>
      </trkpt>
      <trkpt lat="43.6774" lon="6.1528">
        <ele>575</ele>
        <time>2011-01-23T09:37:55Z</time>
      </trkpt>
      <trkpt lat="43.67739" lon="6.15277">
        <ele>575</ele>
        <time>2011-01-23T09:37:57Z</time>
      </trkpt>
      <trkpt lat="43.67741" lon="6.15269">
        <ele>574</ele>
        <time>2011-01-23T09:38:01Z</time>
      </trkpt>
      <trkpt lat="43.6774" lon="6.15263">
        <ele>574</ele>
        <time>2011-01-23T09:38:05Z</time>
      </trkpt>
      <trkpt lat="43.6774" lon="6.15256">
        <ele>574</ele>
        <time>2011-01-23T09:38:08Z</time>
      </trkpt>
      <trkpt lat="43.67741" lon="6.15251">
        <ele>574</ele>
        <time>2011-01-23T09:38:11Z</time>
      </trkpt>
      <trkpt lat="43.6774" lon="6.15242">
        <ele>575</ele>
        <time>2011-01-23T09:38:15Z</time>
      </trkpt>
      <trkpt lat="43.67741" lon="6.15233">
        <ele>574</ele>
        <time>2011-01-23T09:38:20Z</time>
      </trkpt>
      <trkpt lat="43.67744" lon="6.15223">
        <ele>574</ele>
        <time>2011-01-23T09:38:26Z</time>
      </trkpt>
      <trkpt lat="43.67744" lon="6.15215">
        <ele>574</ele>
        <time>2011-01-23T09:38:30Z</time>
      </trkpt>
      <trkpt lat="43.67746" lon="6.15201">
        <ele>574</ele>
        <time>2011-01-23T09:38:39Z</time>
      </trkpt>
      <trkpt lat="43.67746" lon="6.15198">
        <ele>574</ele>
        <time>2011-01-23T09:38:41Z</time>
      </trkpt>
      <trkpt lat="43.67752" lon="6.15177">
        <ele>573</ele>
        <time>2011-01-23T09:38:56Z</time>
      </trkpt>
      <trkpt lat="43.67756" lon="6.15165">
        <ele>573</ele>
        <time>2011-01-23T09:39:04Z</time>
      </trkpt>
      <trkpt lat="43.67756" lon="6.15158">
        <ele>572</ele>
        <time>2011-01-23T09:39:08Z</time>
      </trkpt>
      <trkpt lat="43.6776" lon="6.15149">
        <ele>572</ele>
        <time>2011-01-23T09:39:15Z</time>
      </trkpt>
      <trkpt lat="43.6776" lon="6.15145">
        <ele>572</ele>
        <time>2011-01-23T09:39:17Z</time>
      </trkpt>
      <trkpt lat="43.67763" lon="6.15128">
        <ele>571</ele>
        <time>2011-01-23T09:39:28Z</time>
      </trkpt>
      <trkpt lat="43.67765" lon="6.15113">
        <ele>571</ele>
        <time>2011-01-23T09:39:38Z</time>
      </trkpt>
      <trkpt lat="43.67762" lon="6.15093">
        <ele>571</ele>
        <time>2011-01-23T09:39:50Z</time>
      </trkpt>
      <trkpt lat="43.67761" lon="6.15082">
        <ele>571</ele>
        <time>2011-01-23T09:39:56Z</time>
      </trkpt>
      <trkpt lat="43.6776" lon="6.15072">
        <ele>571</ele>
        <time>2011-01-23T09:40:02Z</time>
      </trkpt>
      <trkpt lat="43.67761" lon="6.1506">
        <ele>570</ele>
        <time>2011-01-23T09:40:09Z</time>
      </trkpt>
      <trkpt lat="43.67759" lon="6.15041">
        <ele>570</ele>
        <time>2011-01-23T09:40:21Z</time>
      </trkpt>
      <trkpt lat="43.67759" lon="6.15036">
        <ele>570</ele>
        <time>2011-01-23T09:40:24Z</time>
      </trkpt>
      <trkpt lat="43.67754" lon="6.15013">
        <ele>569</ele>
        <time>2011-01-23T09:40:39Z</time>
      </trkpt>
      <trkpt lat="43.67754" lon="6.15005">
        <ele>568</ele>
        <time>2011-01-23T09:40:43Z</time>
      </trkpt>
      <trkpt lat="43.67749" lon="6.14984">
        <ele>569</ele>
        <time>2011-01-23T09:40:57Z</time>
      </trkpt>
      <trkpt lat="43.67744" lon="6.14968">
        <ele>568</ele>
        <time>2011-01-23T09:41:09Z</time>
      </trkpt>
      <trkpt lat="43.67741" lon="6.14962">
        <ele>568</ele>
        <time>2011-01-23T09:41:14Z</time>
      </trkpt>
      <trkpt lat="43.6773" lon="6.14948">
        <ele>567</ele>
        <time>2011-01-23T09:41:27Z</time>
      </trkpt>
      <trkpt lat="43.67723" lon="6.14942">
        <ele>567</ele>
        <time>2011-01-23T09:41:33Z</time>
      </trkpt>
      <trkpt lat="43.67714" lon="6.14923">
        <ele>566</ele>
        <time>2011-01-23T09:41:46Z</time>
      </trkpt>
      <trkpt lat="43.67712" lon="6.14914">
        <ele>566</ele>
        <time>2011-01-23T09:41:52Z</time>
      </trkpt>
      <trkpt lat="43.67705" lon="6.14895">
        <ele>567</ele>
        <time>2011-01-23T09:42:06Z</time>
      </trkpt>
      <trkpt lat="43.67704" lon="6.14888">
        <ele>566</ele>
        <time>2011-01-23T09:42:12Z</time>
      </trkpt>
      <trkpt lat="43.67701" lon="6.14872">
        <ele>566</ele>
        <time>2011-01-23T09:42:24Z</time>
      </trkpt>
      <trkpt lat="43.677" lon="6.14859">
        <ele>565</ele>
        <time>2011-01-23T09:42:35Z</time>
      </trkpt>
      <trkpt lat="43.67699" lon="6.14845">
        <ele>565</ele>
        <time>2011-01-23T09:42:46Z</time>
      </trkpt>
      <trkpt lat="43.67693" lon="6.14825">
        <ele>565</ele>
        <time>2011-01-23T09:42:55Z</time>
      </trkpt>
      <trkpt lat="43.67692" lon="6.1482">
        <ele>565</ele>
        <time>2011-01-23T09:42:58Z</time>
      </trkpt>
      <trkpt lat="43.67693" lon="6.14813">
        <ele>564</ele>
        <time>2011-01-23T09:43:02Z</time>
      </trkpt>
      <trkpt lat="43.67692" lon="6.14796">
        <ele>564</ele>
        <time>2011-01-23T09:43:12Z</time>
      </trkpt>
      <trkpt lat="43.67692" lon="6.14785">
        <ele>564</ele>
        <time>2011-01-23T09:43:20Z</time>
      </trkpt>
      <trkpt lat="43.67693" lon="6.14784">
        <ele>564</ele>
        <time>2011-01-23T09:43:21Z</time>
      </trkpt>
      <trkpt lat="43.67692" lon="6.1477">
        <ele>563</ele>
        <time>2011-01-23T09:43:30Z</time>
      </trkpt>
      <trkpt lat="43.67695" lon="6.14763">
        <ele>563</ele>
        <time>2011-01-23T09:43:36Z</time>
      </trkpt>
      <trkpt lat="43.67695" lon="6.14749">
        <ele>563</ele>
        <time>2011-01-23T09:43:46Z</time>
      </trkpt>
      <trkpt lat="43.67697" lon="6.14737">
        <ele>562</ele>
        <time>2011-01-23T09:43:56Z</time>
      </trkpt>
      <trkpt lat="43.67698" lon="6.14735">
        <ele>562</ele>
        <time>2011-01-23T09:43:58Z</time>
      </trkpt>
      <trkpt lat="43.677" lon="6.14733">
        <ele>562</ele>
        <time>2011-01-23T09:44:01Z</time>
      </trkpt>
      <trkpt lat="43.677" lon="6.14718">
        <ele>562</ele>
        <time>2011-01-23T09:44:12Z</time>
      </trkpt>
      <trkpt lat="43.67702" lon="6.14705">
        <ele>562</ele>
        <time>2011-01-23T09:44:23Z</time>
      </trkpt>
      <trkpt lat="43.67704" lon="6.1469">
        <ele>561</ele>
        <time>2011-01-23T09:44:35Z</time>
      </trkpt>
      <trkpt lat="43.67705" lon="6.14683">
        <ele>560</ele>
        <time>2011-01-23T09:45:01Z</time>
      </trkpt>
      <trkpt lat="43.67705" lon="6.14683">
        <ele>560</ele>
        <time>2011-01-23T09:45:31Z</time>
      </trkpt>
      <trkpt lat="43.67705" lon="6.14683">
        <ele>559</ele>
        <time>2011-01-23T09:46:28Z</time>
      </trkpt>
      <trkpt lat="43.67699" lon="6.14675">
        <ele>556</ele>
        <time>2011-01-23T09:49:20Z</time>
      </trkpt>
      <trkpt lat="43.67699" lon="6.14675">
        <ele>550</ele>
        <time>2011-01-23T09:49:34Z</time>
      </trkpt>
      <trkpt lat="43.67699" lon="6.14675">
        <ele>558</ele>
        <time>2011-01-23T09:49:35Z</time>
      </trkpt>
      <trkpt lat="43.67696" lon="6.14672">
        <ele>555</ele>
        <time>2011-01-23T09:51:24Z</time>
      </trkpt>
      <trkpt lat="43.67696" lon="6.14669">
        <ele>554</ele>
        <time>2011-01-23T09:54:17Z</time>
      </trkpt>
      <trkpt lat="43.67692" lon="6.1466">
        <ele>553</ele>
        <time>2011-01-23T09:55:23Z</time>
      </trkpt>
      <trkpt lat="43.6769" lon="6.14641">
        <ele>553</ele>
        <time>2011-01-23T09:55:35Z</time>
      </trkpt>
      <trkpt lat="43.67693" lon="6.14622">
        <ele>552</ele>
        <time>2011-01-23T09:55:45Z</time>
      </trkpt>
      <trkpt lat="43.67694" lon="6.14617">
        <ele>552</ele>
        <time>2011-01-23T09:55:48Z</time>
      </trkpt>
      <trkpt lat="43.67699" lon="6.14602">
        <ele>552</ele>
        <time>2011-01-23T09:55:57Z</time>
      </trkpt>
      <trkpt lat="43.677" lon="6.14592">
        <ele>552</ele>
        <time>2011-01-23T09:56:03Z</time>
      </trkpt>
      <trkpt lat="43.67701" lon="6.14585">
        <ele>552</ele>
        <time>2011-01-23T09:56:08Z</time>
      </trkpt>
      <trkpt lat="43.67705" lon="6.14563">
        <ele>551</ele>
        <time>2011-01-23T09:56:22Z</time>
      </trkpt>
      <trkpt lat="43.67711" lon="6.14546">
        <ele>551</ele>
        <time>2011-01-23T09:56:34Z</time>
      </trkpt>
      <trkpt lat="43.67716" lon="6.14528">
        <ele>550</ele>
        <time>2011-01-23T09:56:47Z</time>
      </trkpt>
      <trkpt lat="43.67718" lon="6.14516">
        <ele>551</ele>
        <time>2011-01-23T09:56:57Z</time>
      </trkpt>
      <trkpt lat="43.67719" lon="6.14502">
        <ele>550</ele>
        <time>2011-01-23T09:57:06Z</time>
      </trkpt>
      <trkpt lat="43.67717" lon="6.14492">
        <ele>551</ele>
        <time>2011-01-23T09:57:12Z</time>
      </trkpt>
      <trkpt lat="43.67713" lon="6.14479">
        <ele>550</ele>
        <time>2011-01-23T09:57:23Z</time>
      </trkpt>
      <trkpt lat="43.67712" lon="6.14468">
        <ele>550</ele>
        <time>2011-01-23T09:57:29Z</time>
      </trkpt>
      <trkpt lat="43.67707" lon="6.14457">
        <ele>550</ele>
        <time>2011-01-23T09:57:38Z</time>
      </trkpt>
      <trkpt lat="43.67698" lon="6.14441">
        <ele>550</ele>
        <time>2011-01-23T09:57:51Z</time>
      </trkpt>
      <trkpt lat="43.67693" lon="6.14436">
        <ele>550</ele>
        <time>2011-01-23T09:57:56Z</time>
      </trkpt>
      <trkpt lat="43.67684" lon="6.14423">
        <ele>549</ele>
        <time>2011-01-23T09:58:08Z</time>
      </trkpt>
      <trkpt lat="43.67667" lon="6.14405">
        <ele>548</ele>
        <time>2011-01-23T09:58:23Z</time>
      </trkpt>
      <trkpt lat="43.67657" lon="6.14393">
        <ele>547</ele>
        <time>2011-01-23T09:58:35Z</time>
      </trkpt>
      <trkpt lat="43.67646" lon="6.14378">
        <ele>547</ele>
        <time>2011-01-23T09:58:49Z</time>
      </trkpt>
      <trkpt lat="43.67645" lon="6.14377">
        <ele>547</ele>
        <time>2011-01-23T09:58:50Z</time>
      </trkpt>
      <trkpt lat="43.67634" lon="6.14358">
        <ele>547</ele>
        <time>2011-01-23T09:59:04Z</time>
      </trkpt>
      <trkpt lat="43.67624" lon="6.1434">
        <ele>546</ele>
        <time>2011-01-23T09:59:18Z</time>
      </trkpt>
      <trkpt lat="43.67616" lon="6.14312">
        <ele>547</ele>
        <time>2011-01-23T09:59:34Z</time>
      </trkpt>
      <trkpt lat="43.67613" lon="6.14292">
        <ele>547</ele>
        <time>2011-01-23T09:59:46Z</time>
      </trkpt>
      <trkpt lat="43.67611" lon="6.1426">
        <ele>546</ele>
        <time>2011-01-23T10:00:05Z</time>
      </trkpt>
      <trkpt lat="43.67611" lon="6.14241">
        <ele>545</ele>
        <time>2011-01-23T10:00:17Z</time>
      </trkpt>
      <trkpt lat="43.67606" lon="6.14216">
        <ele>545</ele>
        <time>2011-01-23T10:00:32Z</time>
      </trkpt>
      <trkpt lat="43.67607" lon="6.14211">
        <ele>544</ele>
        <time>2011-01-23T10:00:36Z</time>
      </trkpt>
      <trkpt lat="43.67608" lon="6.14204">
        <ele>544</ele>
        <time>2011-01-23T10:00:40Z</time>
      </trkpt>
      <trkpt lat="43.67611" lon="6.14173">
        <ele>544</ele>
        <time>2011-01-23T10:00:58Z</time>
      </trkpt>
      <trkpt lat="43.67611" lon="6.14162">
        <ele>544</ele>
        <time>2011-01-23T10:01:05Z</time>
      </trkpt>
      <trkpt lat="43.67612" lon="6.14156">
        <ele>544</ele>
        <time>2011-01-23T10:01:09Z</time>
      </trkpt>
      <trkpt lat="43.67619" lon="6.14129">
        <ele>544</ele>
        <time>2011-01-23T10:01:26Z</time>
      </trkpt>
      <trkpt lat="43.67618" lon="6.14103">
        <ele>544</ele>
        <time>2011-01-23T10:01:42Z</time>
      </trkpt>
      <trkpt lat="43.67618" lon="6.14095">
        <ele>544</ele>
        <time>2011-01-23T10:01:48Z</time>
      </trkpt>
      <trkpt lat="43.67618" lon="6.1409">
        <ele>544</ele>
        <time>2011-01-23T10:01:51Z</time>
      </trkpt>
      <trkpt lat="43.67615" lon="6.14066">
        <ele>544</ele>
        <time>2011-01-23T10:02:07Z</time>
      </trkpt>
      <trkpt lat="43.67609" lon="6.14036">
        <ele>543</ele>
        <time>2011-01-23T10:02:25Z</time>
      </trkpt>
      <trkpt lat="43.67605" lon="6.14005">
        <ele>543</ele>
        <time>2011-01-23T10:02:44Z</time>
      </trkpt>
      <trkpt lat="43.67603" lon="6.13978">
        <ele>542</ele>
        <time>2011-01-23T10:03:01Z</time>
      </trkpt>
      <trkpt lat="43.67604" lon="6.13951">
        <ele>542</ele>
        <time>2011-01-23T10:03:18Z</time>
      </trkpt>
      <trkpt lat="43.67604" lon="6.13943">
        <ele>542</ele>
        <time>2011-01-23T10:03:22Z</time>
      </trkpt>
      <trkpt lat="43.67606" lon="6.13923">
        <ele>542</ele>
        <time>2011-01-23T10:03:34Z</time>
      </trkpt>
      <trkpt lat="43.67605" lon="6.1392">
        <ele>542</ele>
        <time>2011-01-23T10:03:36Z</time>
      </trkpt>
      <trkpt lat="43.67605" lon="6.13894">
        <ele>541</ele>
        <time>2011-01-23T10:03:51Z</time>
      </trkpt>
      <trkpt lat="43.67606" lon="6.1389">
        <ele>542</ele>
        <time>2011-01-23T10:03:54Z</time>
      </trkpt>
      <trkpt lat="43.67608" lon="6.13866">
        <ele>541</ele>
        <time>2011-01-23T10:04:09Z</time>
      </trkpt>
      <trkpt lat="43.67612" lon="6.13844">
        <ele>539</ele>
        <time>2011-01-23T10:04:23Z</time>
      </trkpt>
      <trkpt lat="43.67614" lon="6.13841">
        <ele>540</ele>
        <time>2011-01-23T10:04:25Z</time>
      </trkpt>
      <trkpt lat="43.67616" lon="6.13833">
        <ele>540</ele>
        <time>2011-01-23T10:04:30Z</time>
      </trkpt>
      <trkpt lat="43.67618" lon="6.13804">
        <ele>540</ele>
        <time>2011-01-23T10:04:47Z</time>
      </trkpt>
      <trkpt lat="43.67617" lon="6.1378">
        <ele>539</ele>
        <time>2011-01-23T10:05:03Z</time>
      </trkpt>
      <trkpt lat="43.67613" lon="6.13759">
        <ele>540</ele>
        <time>2011-01-23T10:05:17Z</time>
      </trkpt>
      <trkpt lat="43.67603" lon="6.13736">
        <ele>539</ele>
        <time>2011-01-23T10:05:33Z</time>
      </trkpt>
      <trkpt lat="43.67596" lon="6.13725">
        <ele>540</ele>
        <time>2011-01-23T10:05:46Z</time>
      </trkpt>
      <trkpt lat="43.67595" lon="6.13725">
        <ele>540</ele>
        <time>2011-01-23T10:06:26Z</time>
      </trkpt>
      <trkpt lat="43.67595" lon="6.13726">
        <ele>540</ele>
        <time>2011-01-23T10:07:13Z</time>
      </trkpt>
      <trkpt lat="43.67594" lon="6.13725">
        <ele>530</ele>
        <time>2011-01-23T10:07:55Z</time>
      </trkpt>
      <trkpt lat="43.67594" lon="6.13725">
        <ele>541</ele>
        <time>2011-01-23T10:07:56Z</time>
      </trkpt>
      <trkpt lat="43.67594" lon="6.13725">
        <ele>535</ele>
        <time>2011-01-23T10:08:04Z</time>
      </trkpt>
      <trkpt lat="43.67594" lon="6.13725">
        <ele>541</ele>
        <time>2011-01-23T10:08:05Z</time>
      </trkpt>
      <trkpt lat="43.67595" lon="6.13725">
        <ele>541</ele>
        <time>2011-01-23T10:08:23Z</time>
      </trkpt>
      <trkpt lat="43.67595" lon="6.13724">
        <ele>541</ele>
        <time>2011-01-23T10:08:48Z</time>
      </trkpt>
      <trkpt lat="43.67597" lon="6.13718">
        <ele>542</ele>
        <time>2011-01-23T10:09:51Z</time>
      </trkpt>
      <trkpt lat="43.67598" lon="6.13704">
        <ele>541</ele>
        <time>2011-01-23T10:10:03Z</time>
      </trkpt>
      <trkpt lat="43.67602" lon="6.13683">
        <ele>542</ele>
        <time>2011-01-23T10:10:17Z</time>
      </trkpt>
      <trkpt lat="43.67603" lon="6.13677">
        <ele>542</ele>
        <time>2011-01-23T10:10:22Z</time>
      </trkpt>
      <trkpt lat="43.67607" lon="6.13663">
        <ele>542</ele>
        <time>2011-01-23T10:10:33Z</time>
      </trkpt>
      <trkpt lat="43.6761" lon="6.13646">
        <ele>541</ele>
        <time>2011-01-23T10:10:43Z</time>
      </trkpt>
      <trkpt lat="43.67614" lon="6.13638">
        <ele>541</ele>
        <time>2011-01-23T10:10:49Z</time>
      </trkpt>
      <trkpt lat="43.67622" lon="6.13629">
        <ele>541</ele>
        <time>2011-01-23T10:10:57Z</time>
      </trkpt>
      <trkpt lat="43.67624" lon="6.13625">
        <ele>541</ele>
        <time>2011-01-23T10:11:00Z</time>
      </trkpt>
      <trkpt lat="43.67628" lon="6.13622">
        <ele>541</ele>
        <time>2011-01-23T10:11:04Z</time>
      </trkpt>
      <trkpt lat="43.6763" lon="6.13617">
        <ele>540</ele>
        <time>2011-01-23T10:11:07Z</time>
      </trkpt>
      <trkpt lat="43.6763" lon="6.13603">
        <ele>541</ele>
        <time>2011-01-23T10:11:16Z</time>
      </trkpt>
      <trkpt lat="43.67629" lon="6.136">
        <ele>541</ele>
        <time>2011-01-23T10:11:18Z</time>
      </trkpt>
      <trkpt lat="43.67627" lon="6.13579">
        <ele>539</ele>
        <time>2011-01-23T10:11:32Z</time>
      </trkpt>
      <trkpt lat="43.67621" lon="6.13563">
        <ele>538</ele>
        <time>2011-01-23T10:11:43Z</time>
      </trkpt>
      <trkpt lat="43.6762" lon="6.13562">
        <ele>538</ele>
        <time>2011-01-23T10:11:44Z</time>
      </trkpt>
      <trkpt lat="43.67611" lon="6.13548">
        <ele>539</ele>
        <time>2011-01-23T10:11:56Z</time>
      </trkpt>
      <trkpt lat="43.676" lon="6.13529">
        <ele>539</ele>
        <time>2011-01-23T10:12:09Z</time>
      </trkpt>
      <trkpt lat="43.67598" lon="6.13524">
        <ele>539</ele>
        <time>2011-01-23T10:12:13Z</time>
      </trkpt>
      <trkpt lat="43.67595" lon="6.13519">
        <ele>538</ele>
        <time>2011-01-23T10:12:17Z</time>
      </trkpt>
      <trkpt lat="43.67587" lon="6.1351">
        <ele>539</ele>
        <time>2011-01-23T10:12:25Z</time>
      </trkpt>
      <trkpt lat="43.67577" lon="6.13498">
        <ele>539</ele>
        <time>2011-01-23T10:12:37Z</time>
      </trkpt>
      <trkpt lat="43.67572" lon="6.13487">
        <ele>538</ele>
        <time>2011-01-23T10:12:44Z</time>
      </trkpt>
      <trkpt lat="43.67559" lon="6.13475">
        <ele>537</ele>
        <time>2011-01-23T10:12:56Z</time>
      </trkpt>
      <trkpt lat="43.67559" lon="6.13474">
        <ele>537</ele>
        <time>2011-01-23T10:12:57Z</time>
      </trkpt>
      <trkpt lat="43.67554" lon="6.13472">
        <ele>537</ele>
        <time>2011-01-23T10:13:01Z</time>
      </trkpt>
      <trkpt lat="43.67541" lon="6.13468">
        <ele>537</ele>
        <time>2011-01-23T10:13:13Z</time>
      </trkpt>
      <trkpt lat="43.67534" lon="6.13457">
        <ele>538</ele>
        <time>2011-01-23T10:13:22Z</time>
      </trkpt>
      <trkpt lat="43.67528" lon="6.13434">
        <ele>538</ele>
        <time>2011-01-23T10:13:35Z</time>
      </trkpt>
      <trkpt lat="43.67526" lon="6.13411">
        <ele>537</ele>
        <time>2011-01-23T10:13:47Z</time>
      </trkpt>
      <trkpt lat="43.67526" lon="6.13395">
        <ele>537</ele>
        <time>2011-01-23T10:13:57Z</time>
      </trkpt>
      <trkpt lat="43.67526" lon="6.13378">
        <ele>535</ele>
        <time>2011-01-23T10:14:08Z</time>
      </trkpt>
      <trkpt lat="43.67527" lon="6.1336">
        <ele>536</ele>
        <time>2011-01-23T10:14:18Z</time>
      </trkpt>
      <trkpt lat="43.67527" lon="6.13352">
        <ele>535</ele>
        <time>2011-01-23T10:14:22Z</time>
      </trkpt>
      <trkpt lat="43.67529" lon="6.13344">
        <ele>536</ele>
        <time>2011-01-23T10:14:27Z</time>
      </trkpt>
      <trkpt lat="43.67533" lon="6.13324">
        <ele>535</ele>
        <time>2011-01-23T10:14:39Z</time>
      </trkpt>
      <trkpt lat="43.67533" lon="6.13319">
        <ele>535</ele>
        <time>2011-01-23T10:14:42Z</time>
      </trkpt>
      <trkpt lat="43.67533" lon="6.13307">
        <ele>536</ele>
        <time>2011-01-23T10:14:49Z</time>
      </trkpt>
      <trkpt lat="43.67532" lon="6.13297">
        <ele>536</ele>
        <time>2011-01-23T10:14:54Z</time>
      </trkpt>
      <trkpt lat="43.67531" lon="6.13277">
        <ele>536</ele>
        <time>2011-01-23T10:15:07Z</time>
      </trkpt>
      <trkpt lat="43.67529" lon="6.13264">
        <ele>537</ele>
        <time>2011-01-23T10:15:14Z</time>
      </trkpt>
      <trkpt lat="43.67514" lon="6.13249">
        <ele>535</ele>
        <time>2011-01-23T10:15:29Z</time>
      </trkpt>
      <trkpt lat="43.67511" lon="6.13248">
        <ele>535</ele>
        <time>2011-01-23T10:15:33Z</time>
      </trkpt>
      <trkpt lat="43.67503" lon="6.13243">
        <ele>535</ele>
        <time>2011-01-23T10:15:39Z</time>
      </trkpt>
      <trkpt lat="43.675" lon="6.13242">
        <ele>534</ele>
        <time>2011-01-23T10:15:42Z</time>
      </trkpt>
      <trkpt lat="43.67489" lon="6.1323">
        <ele>533</ele>
        <time>2011-01-23T10:15:54Z</time>
      </trkpt>
      <trkpt lat="43.67486" lon="6.13224">
        <ele>535</ele>
        <time>2011-01-23T10:15:58Z</time>
      </trkpt>
      <trkpt lat="43.67485" lon="6.13222">
        <ele>535</ele>
        <time>2011-01-23T10:16:00Z</time>
      </trkpt>
      <trkpt lat="43.6748" lon="6.13211">
        <ele>535</ele>
        <time>2011-01-23T10:16:08Z</time>
      </trkpt>
      <trkpt lat="43.67478" lon="6.13192">
        <ele>534</ele>
        <time>2011-01-23T10:16:20Z</time>
      </trkpt>
      <trkpt lat="43.67478" lon="6.1319">
        <ele>534</ele>
        <time>2011-01-23T10:16:21Z</time>
      </trkpt>
      <trkpt lat="43.67478" lon="6.13165">
        <ele>532</ele>
        <time>2011-01-23T10:16:35Z</time>
      </trkpt>
      <trkpt lat="43.6748" lon="6.13155">
        <ele>532</ele>
        <time>2011-01-23T10:16:42Z</time>
      </trkpt>
      <trkpt lat="43.67483" lon="6.13142">
        <ele>532</ele>
        <time>2011-01-23T10:16:52Z</time>
      </trkpt>
      <trkpt lat="43.67492" lon="6.13124">
        <ele>533</ele>
        <time>2011-01-23T10:17:05Z</time>
      </trkpt>
      <trkpt lat="43.67492" lon="6.13122">
        <ele>533</ele>
        <time>2011-01-23T10:17:06Z</time>
      </trkpt>
      <trkpt lat="43.675" lon="6.13109">
        <ele>532</ele>
        <time>2011-01-23T10:17:15Z</time>
      </trkpt>
      <trkpt lat="43.67503" lon="6.13105">
        <ele>532</ele>
        <time>2011-01-23T10:17:19Z</time>
      </trkpt>
      <trkpt lat="43.67512" lon="6.13086">
        <ele>531</ele>
        <time>2011-01-23T10:17:32Z</time>
      </trkpt>
      <trkpt lat="43.67513" lon="6.13074">
        <ele>533</ele>
        <time>2011-01-23T10:17:40Z</time>
      </trkpt>
      <trkpt lat="43.67513" lon="6.13069">
        <ele>533</ele>
        <time>2011-01-23T10:17:43Z</time>
      </trkpt>
      <trkpt lat="43.67511" lon="6.13061">
        <ele>533</ele>
        <time>2011-01-23T10:17:49Z</time>
      </trkpt>
      <trkpt lat="43.6751" lon="6.13058">
        <ele>533</ele>
        <time>2011-01-23T10:17:51Z</time>
      </trkpt>
      <trkpt lat="43.67506" lon="6.13043">
        <ele>531</ele>
        <time>2011-01-23T10:18:02Z</time>
      </trkpt>
      <trkpt lat="43.67493" lon="6.1303">
        <ele>531</ele>
        <time>2011-01-23T10:18:14Z</time>
      </trkpt>
      <trkpt lat="43.67482" lon="6.13015">
        <ele>531</ele>
        <time>2011-01-23T10:18:28Z</time>
      </trkpt>
      <trkpt lat="43.67476" lon="6.13">
        <ele>531</ele>
        <time>2011-01-23T10:18:39Z</time>
      </trkpt>
      <trkpt lat="43.67474" lon="6.12985">
        <ele>532</ele>
        <time>2011-01-23T10:18:48Z</time>
      </trkpt>
      <trkpt lat="43.67475" lon="6.12977">
        <ele>532</ele>
        <time>2011-01-23T10:18:53Z</time>
      </trkpt>
      <trkpt lat="43.67478" lon="6.12968">
        <ele>531</ele>
        <time>2011-01-23T10:18:59Z</time>
      </trkpt>
      <trkpt lat="43.67486" lon="6.12954">
        <ele>531</ele>
        <time>2011-01-23T10:19:10Z</time>
      </trkpt>
      <trkpt lat="43.67493" lon="6.12942">
        <ele>530</ele>
        <time>2011-01-23T10:19:20Z</time>
      </trkpt>
      <trkpt lat="43.675" lon="6.12938">
        <ele>530</ele>
        <time>2011-01-23T10:19:26Z</time>
      </trkpt>
      <trkpt lat="43.67501" lon="6.12936">
        <ele>530</ele>
        <time>2011-01-23T10:19:28Z</time>
      </trkpt>
      <trkpt lat="43.67518" lon="6.12927">
        <ele>529</ele>
        <time>2011-01-23T10:19:43Z</time>
      </trkpt>
      <trkpt lat="43.67531" lon="6.12913">
        <ele>528</ele>
        <time>2011-01-23T10:19:56Z</time>
      </trkpt>
      <trkpt lat="43.67533" lon="6.12911">
        <ele>528</ele>
        <time>2011-01-23T10:19:58Z</time>
      </trkpt>
      <trkpt lat="43.67534" lon="6.12906">
        <ele>529</ele>
        <time>2011-01-23T10:20:01Z</time>
      </trkpt>
      <trkpt lat="43.67539" lon="6.12884">
        <ele>530</ele>
        <time>2011-01-23T10:20:14Z</time>
      </trkpt>
      <trkpt lat="43.6754" lon="6.12869">
        <ele>528</ele>
        <time>2011-01-23T10:20:23Z</time>
      </trkpt>
      <trkpt lat="43.67534" lon="6.12851">
        <ele>529</ele>
        <time>2011-01-23T10:20:35Z</time>
      </trkpt>
      <trkpt lat="43.67527" lon="6.12833">
        <ele>528</ele>
        <time>2011-01-23T10:20:47Z</time>
      </trkpt>
      <trkpt lat="43.67518" lon="6.12815">
        <ele>527</ele>
        <time>2011-01-23T10:21:01Z</time>
      </trkpt>
      <trkpt lat="43.67512" lon="6.12798">
        <ele>527</ele>
        <time>2011-01-23T10:21:12Z</time>
      </trkpt>
      <trkpt lat="43.67514" lon="6.12781">
        <ele>527</ele>
        <time>2011-01-23T10:21:23Z</time>
      </trkpt>
      <trkpt lat="43.67518" lon="6.12763">
        <ele>526</ele>
        <time>2011-01-23T10:21:34Z</time>
      </trkpt>
      <trkpt lat="43.6752" lon="6.12755">
        <ele>526</ele>
        <time>2011-01-23T10:21:40Z</time>
      </trkpt>
      <trkpt lat="43.67522" lon="6.12748">
        <ele>526</ele>
        <time>2011-01-23T10:21:45Z</time>
      </trkpt>
      <trkpt lat="43.67526" lon="6.12726">
        <ele>526</ele>
        <time>2011-01-23T10:21:58Z</time>
      </trkpt>
      <trkpt lat="43.67527" lon="6.12721">
        <ele>525</ele>
        <time>2011-01-23T10:22:01Z</time>
      </trkpt>
      <trkpt lat="43.67524" lon="6.12712">
        <ele>526</ele>
        <time>2011-01-23T10:22:07Z</time>
      </trkpt>
      <trkpt lat="43.67519" lon="6.12707">
        <ele>526</ele>
        <time>2011-01-23T10:22:12Z</time>
      </trkpt>
      <trkpt lat="43.67515" lon="6.12708">
        <ele>526</ele>
        <time>2011-01-23T10:22:15Z</time>
      </trkpt>
      <trkpt lat="43.67501" lon="6.12722">
        <ele>526</ele>
        <time>2011-01-23T10:22:28Z</time>
      </trkpt>
      <trkpt lat="43.675" lon="6.12723">
        <ele>526</ele>
        <time>2011-01-23T10:22:29Z</time>
      </trkpt>
      <trkpt lat="43.67487" lon="6.12734">
        <ele>525</ele>
        <time>2011-01-23T10:22:41Z</time>
      </trkpt>
      <trkpt lat="43.67473" lon="6.12743">
        <ele>525</ele>
        <time>2011-01-23T10:22:53Z</time>
      </trkpt>
      <trkpt lat="43.67471" lon="6.12743">
        <ele>525</ele>
        <time>2011-01-23T10:22:55Z</time>
      </trkpt>
      <trkpt lat="43.67463" lon="6.12733">
        <ele>525</ele>
        <time>2011-01-23T10:23:04Z</time>
      </trkpt>
      <trkpt lat="43.67461" lon="6.12716">
        <ele>524</ele>
        <time>2011-01-23T10:23:14Z</time>
      </trkpt>
      <trkpt lat="43.67467" lon="6.12696">
        <ele>524</ele>
        <time>2011-01-23T10:23:27Z</time>
      </trkpt>
      <trkpt lat="43.67467" lon="6.12694">
        <ele>524</ele>
        <time>2011-01-23T10:23:28Z</time>
      </trkpt>
      <trkpt lat="43.6747" lon="6.12685">
        <ele>525</ele>
        <time>2011-01-23T10:23:34Z</time>
      </trkpt>
      <trkpt lat="43.67471" lon="6.12677">
        <ele>524</ele>
        <time>2011-01-23T10:23:39Z</time>
      </trkpt>
      <trkpt lat="43.67474" lon="6.12667">
        <ele>524</ele>
        <time>2011-01-23T10:23:45Z</time>
      </trkpt>
      <trkpt lat="43.67477" lon="6.12654">
        <ele>524</ele>
        <time>2011-01-23T10:23:53Z</time>
      </trkpt>
      <trkpt lat="43.67478" lon="6.12651">
        <ele>524</ele>
        <time>2011-01-23T10:23:55Z</time>
      </trkpt>
      <trkpt lat="43.67482" lon="6.12632">
        <ele>523</ele>
        <time>2011-01-23T10:24:06Z</time>
      </trkpt>
      <trkpt lat="43.67483" lon="6.12625">
        <ele>524</ele>
        <time>2011-01-23T10:24:11Z</time>
      </trkpt>
      <trkpt lat="43.67485" lon="6.12614">
        <ele>524</ele>
        <time>2011-01-23T10:24:17Z</time>
      </trkpt>
      <trkpt lat="43.67485" lon="6.12603">
        <ele>524</ele>
        <time>2011-01-23T10:24:23Z</time>
      </trkpt>
      <trkpt lat="43.67487" lon="6.12595">
        <ele>524</ele>
        <time>2011-01-23T10:24:28Z</time>
      </trkpt>
      <trkpt lat="43.6749" lon="6.12582">
        <ele>523</ele>
        <time>2011-01-23T10:24:37Z</time>
      </trkpt>
      <trkpt lat="43.6749" lon="6.12566">
        <ele>523</ele>
        <time>2011-01-23T10:24:47Z</time>
      </trkpt>
      <trkpt lat="43.67491" lon="6.12561">
        <ele>523</ele>
        <time>2011-01-23T10:24:50Z</time>
      </trkpt>
      <trkpt lat="43.67492" lon="6.12552">
        <ele>524</ele>
        <time>2011-01-23T10:24:55Z</time>
      </trkpt>
      <trkpt lat="43.67497" lon="6.12535">
        <ele>523</ele>
        <time>2011-01-23T10:25:06Z</time>
      </trkpt>
      <trkpt lat="43.67504" lon="6.12519">
        <ele>523</ele>
        <time>2011-01-23T10:25:17Z</time>
      </trkpt>
      <trkpt lat="43.67507" lon="6.12513">
        <ele>523</ele>
        <time>2011-01-23T10:25:21Z</time>
      </trkpt>
      <trkpt lat="43.67509" lon="6.12505">
        <ele>523</ele>
        <time>2011-01-23T10:25:27Z</time>
      </trkpt>
      <trkpt lat="43.67517" lon="6.12488">
        <ele>523</ele>
        <time>2011-01-23T10:25:39Z</time>
      </trkpt>
      <trkpt lat="43.67519" lon="6.12486">
        <ele>523</ele>
        <time>2011-01-23T10:25:41Z</time>
      </trkpt>
      <trkpt lat="43.67523" lon="6.12481">
        <ele>523</ele>
        <time>2011-01-23T10:25:45Z</time>
      </trkpt>
      <trkpt lat="43.67531" lon="6.12467">
        <ele>523</ele>
        <time>2011-01-23T10:25:55Z</time>
      </trkpt>
      <trkpt lat="43.67541" lon="6.12457">
        <ele>522</ele>
        <time>2011-01-23T10:26:06Z</time>
      </trkpt>
      <trkpt lat="43.67543" lon="6.12455">
        <ele>523</ele>
        <time>2011-01-23T10:26:08Z</time>
      </trkpt>
      <trkpt lat="43.6755" lon="6.12443">
        <ele>521</ele>
        <time>2011-01-23T10:26:17Z</time>
      </trkpt>
      <trkpt lat="43.67553" lon="6.12436">
        <ele>522</ele>
        <time>2011-01-23T10:26:23Z</time>
      </trkpt>
      <trkpt lat="43.67559" lon="6.12427">
        <ele>522</ele>
        <time>2011-01-23T10:26:30Z</time>
      </trkpt>
      <trkpt lat="43.6756" lon="6.12417">
        <ele>522</ele>
        <time>2011-01-23T10:26:36Z</time>
      </trkpt>
      <trkpt lat="43.67561" lon="6.12405">
        <ele>522</ele>
        <time>2011-01-23T10:26:43Z</time>
      </trkpt>
      <trkpt lat="43.67562" lon="6.12394">
        <ele>522</ele>
        <time>2011-01-23T10:26:49Z</time>
      </trkpt>
      <trkpt lat="43.67565" lon="6.12388">
        <ele>521</ele>
        <time>2011-01-23T10:26:53Z</time>
      </trkpt>
      <trkpt lat="43.67571" lon="6.12377">
        <ele>521</ele>
        <time>2011-01-23T10:27:01Z</time>
      </trkpt>
      <trkpt lat="43.6758" lon="6.12368">
        <ele>521</ele>
        <time>2011-01-23T10:27:10Z</time>
      </trkpt>
      <trkpt lat="43.67587" lon="6.12364">
        <ele>521</ele>
        <time>2011-01-23T10:27:16Z</time>
      </trkpt>
      <trkpt lat="43.67594" lon="6.12355">
        <ele>520</ele>
        <time>2011-01-23T10:27:24Z</time>
      </trkpt>
      <trkpt lat="43.67597" lon="6.1235">
        <ele>521</ele>
        <time>2011-01-23T10:27:28Z</time>
      </trkpt>
      <trkpt lat="43.67603" lon="6.12342">
        <ele>520</ele>
        <time>2011-01-23T10:27:36Z</time>
      </trkpt>
      <trkpt lat="43.67607" lon="6.12337">
        <ele>520</ele>
        <time>2011-01-23T10:27:40Z</time>
      </trkpt>
      <trkpt lat="43.67621" lon="6.12326">
        <ele>520</ele>
        <time>2011-01-23T10:27:54Z</time>
      </trkpt>
      <trkpt lat="43.67639" lon="6.12318">
        <ele>519</ele>
        <time>2011-01-23T10:28:08Z</time>
      </trkpt>
      <trkpt lat="43.67657" lon="6.12305">
        <ele>520</ele>
        <time>2011-01-23T10:28:24Z</time>
      </trkpt>
      <trkpt lat="43.67667" lon="6.12296">
        <ele>519</ele>
        <time>2011-01-23T10:28:36Z</time>
      </trkpt>
      <trkpt lat="43.67683" lon="6.12291">
        <ele>519</ele>
        <time>2011-01-23T10:28:49Z</time>
      </trkpt>
      <trkpt lat="43.677" lon="6.12289">
        <ele>518</ele>
        <time>2011-01-23T10:29:04Z</time>
      </trkpt>
      <trkpt lat="43.67719" lon="6.12286">
        <ele>519</ele>
        <time>2011-01-23T10:29:19Z</time>
      </trkpt>
      <trkpt lat="43.67734" lon="6.12285">
        <ele>518</ele>
        <time>2011-01-23T10:29:32Z</time>
      </trkpt>
      <trkpt lat="43.67747" lon="6.12284">
        <ele>518</ele>
        <time>2011-01-23T10:29:43Z</time>
      </trkpt>
      <trkpt lat="43.67766" lon="6.12283">
        <ele>518</ele>
        <time>2011-01-23T10:29:58Z</time>
      </trkpt>
      <trkpt lat="43.67768" lon="6.12282">
        <ele>518</ele>
        <time>2011-01-23T10:30:00Z</time>
      </trkpt>
      <trkpt lat="43.67785" lon="6.12284">
        <ele>517</ele>
        <time>2011-01-23T10:30:14Z</time>
      </trkpt>
      <trkpt lat="43.67799" lon="6.12288">
        <ele>517</ele>
        <time>2011-01-23T10:30:27Z</time>
      </trkpt>
      <trkpt lat="43.678" lon="6.12288">
        <ele>517</ele>
        <time>2011-01-23T10:30:28Z</time>
      </trkpt>
      <trkpt lat="43.67808" lon="6.12285">
        <ele>518</ele>
        <time>2011-01-23T10:30:36Z</time>
      </trkpt>
      <trkpt lat="43.67824" lon="6.12274">
        <ele>517</ele>
        <time>2011-01-23T10:30:50Z</time>
      </trkpt>
      <trkpt lat="43.67828" lon="6.12271">
        <ele>517</ele>
        <time>2011-01-23T10:30:54Z</time>
      </trkpt>
      <trkpt lat="43.67835" lon="6.12258">
        <ele>517</ele>
        <time>2011-01-23T10:31:04Z</time>
      </trkpt>
      <trkpt lat="43.6784" lon="6.12246">
        <ele>517</ele>
        <time>2011-01-23T10:31:12Z</time>
      </trkpt>
      <trkpt lat="43.67841" lon="6.12236">
        <ele>516</ele>
        <time>2011-01-23T10:31:17Z</time>
      </trkpt>
      <trkpt lat="43.67843" lon="6.12215">
        <ele>516</ele>
        <time>2011-01-23T10:31:30Z</time>
      </trkpt>
      <trkpt lat="43.67843" lon="6.12204">
        <ele>516</ele>
        <time>2011-01-23T10:31:36Z</time>
      </trkpt>
      <trkpt lat="43.67845" lon="6.12195">
        <ele>516</ele>
        <time>2011-01-23T10:31:42Z</time>
      </trkpt>
      <trkpt lat="43.67847" lon="6.1219">
        <ele>516</ele>
        <time>2011-01-23T10:31:45Z</time>
      </trkpt>
      <trkpt lat="43.67846" lon="6.12181">
        <ele>517</ele>
        <time>2011-01-23T10:31:50Z</time>
      </trkpt>
      <trkpt lat="43.67848" lon="6.12171">
        <ele>517</ele>
        <time>2011-01-23T10:31:56Z</time>
      </trkpt>
      <trkpt lat="43.67852" lon="6.12163">
        <ele>516</ele>
        <time>2011-01-23T10:32:02Z</time>
      </trkpt>
      <trkpt lat="43.67854" lon="6.12159">
        <ele>515</ele>
        <time>2011-01-23T10:32:05Z</time>
      </trkpt>
      <trkpt lat="43.67854" lon="6.1215">
        <ele>515</ele>
        <time>2011-01-23T10:32:10Z</time>
      </trkpt>
      <trkpt lat="43.67861" lon="6.12134">
        <ele>515</ele>
        <time>2011-01-23T10:32:22Z</time>
      </trkpt>
      <trkpt lat="43.67864" lon="6.12127">
        <ele>514</ele>
        <time>2011-01-23T10:32:27Z</time>
      </trkpt>
      <trkpt lat="43.67868" lon="6.12112">
        <ele>514</ele>
        <time>2011-01-23T10:32:37Z</time>
      </trkpt>
      <trkpt lat="43.67867" lon="6.12103">
        <ele>515</ele>
        <time>2011-01-23T10:32:42Z</time>
      </trkpt>
      <trkpt lat="43.67867" lon="6.121">
        <ele>514</ele>
        <time>2011-01-23T10:32:44Z</time>
      </trkpt>
      <trkpt lat="43.67868" lon="6.12093">
        <ele>514</ele>
        <time>2011-01-23T10:32:48Z</time>
      </trkpt>
      <trkpt lat="43.67868" lon="6.12086">
        <ele>514</ele>
        <time>2011-01-23T10:32:52Z</time>
      </trkpt>
      <trkpt lat="43.67869" lon="6.12072">
        <ele>514</ele>
        <time>2011-01-23T10:33:00Z</time>
      </trkpt>
      <trkpt lat="43.6787" lon="6.12068">
        <ele>515</ele>
        <time>2011-01-23T10:33:03Z</time>
      </trkpt>
      <trkpt lat="43.6787" lon="6.12064">
        <ele>515</ele>
        <time>2011-01-23T10:33:05Z</time>
      </trkpt>
      <trkpt lat="43.67875" lon="6.12048">
        <ele>515</ele>
        <time>2011-01-23T10:33:14Z</time>
      </trkpt>
      <trkpt lat="43.67881" lon="6.12037">
        <ele>515</ele>
        <time>2011-01-23T10:33:22Z</time>
      </trkpt>
      <trkpt lat="43.67883" lon="6.12035">
        <ele>515</ele>
        <time>2011-01-23T10:33:24Z</time>
      </trkpt>
      <trkpt lat="43.67891" lon="6.12021">
        <ele>514</ele>
        <time>2011-01-23T10:33:34Z</time>
      </trkpt>
      <trkpt lat="43.67904" lon="6.12011">
        <ele>514</ele>
        <time>2011-01-23T10:33:46Z</time>
      </trkpt>
      <trkpt lat="43.67916" lon="6.12004">
        <ele>514</ele>
        <time>2011-01-23T10:33:58Z</time>
      </trkpt>
      <trkpt lat="43.67924" lon="6.11998">
        <ele>514</ele>
        <time>2011-01-23T10:34:05Z</time>
      </trkpt>
      <trkpt lat="43.67937" lon="6.11989">
        <ele>514</ele>
        <time>2011-01-23T10:34:17Z</time>
      </trkpt>
      <trkpt lat="43.6794" lon="6.11987">
        <ele>514</ele>
        <time>2011-01-23T10:34:20Z</time>
      </trkpt>
      <trkpt lat="43.67946" lon="6.11981">
        <ele>514</ele>
        <time>2011-01-23T10:34:26Z</time>
      </trkpt>
      <trkpt lat="43.67951" lon="6.11975">
        <ele>514</ele>
        <time>2011-01-23T10:34:31Z</time>
      </trkpt>
      <trkpt lat="43.67959" lon="6.11957">
        <ele>514</ele>
        <time>2011-01-23T10:34:44Z</time>
      </trkpt>
      <trkpt lat="43.67959" lon="6.11956">
        <ele>514</ele>
        <time>2011-01-23T10:34:45Z</time>
      </trkpt>
      <trkpt lat="43.6796" lon="6.11942">
        <ele>513</ele>
        <time>2011-01-23T10:34:53Z</time>
      </trkpt>
      <trkpt lat="43.67959" lon="6.11932">
        <ele>514</ele>
        <time>2011-01-23T10:34:59Z</time>
      </trkpt>
      <trkpt lat="43.67962" lon="6.11924">
        <ele>513</ele>
        <time>2011-01-23T10:35:04Z</time>
      </trkpt>
      <trkpt lat="43.67961" lon="6.11913">
        <ele>513</ele>
        <time>2011-01-23T10:35:09Z</time>
      </trkpt>
      <trkpt lat="43.67964" lon="6.11905">
        <ele>513</ele>
        <time>2011-01-23T10:35:14Z</time>
      </trkpt>
      <trkpt lat="43.67965" lon="6.11895">
        <ele>513</ele>
        <time>2011-01-23T10:35:20Z</time>
      </trkpt>
      <trkpt lat="43.67969" lon="6.11883">
        <ele>513</ele>
        <time>2011-01-23T10:35:28Z</time>
      </trkpt>
      <trkpt lat="43.67983" lon="6.11867">
        <ele>513</ele>
        <time>2011-01-23T10:35:43Z</time>
      </trkpt>
      <trkpt lat="43.67995" lon="6.11858">
        <ele>513</ele>
        <time>2011-01-23T10:35:54Z</time>
      </trkpt>
      <trkpt lat="43.67998" lon="6.11854">
        <ele>512</ele>
        <time>2011-01-23T10:35:58Z</time>
      </trkpt>
      <trkpt lat="43.68007" lon="6.11847">
        <ele>513</ele>
        <time>2011-01-23T10:36:07Z</time>
      </trkpt>
      <trkpt lat="43.68015" lon="6.1184">
        <ele>513</ele>
        <time>2011-01-23T10:36:15Z</time>
      </trkpt>
      <trkpt lat="43.68021" lon="6.11832">
        <ele>513</ele>
        <time>2011-01-23T10:36:22Z</time>
      </trkpt>
      <trkpt lat="43.68023" lon="6.11827">
        <ele>513</ele>
        <time>2011-01-23T10:36:25Z</time>
      </trkpt>
      <trkpt lat="43.68023" lon="6.11818">
        <ele>513</ele>
        <time>2011-01-23T10:36:30Z</time>
      </trkpt>
      <trkpt lat="43.68015" lon="6.118">
        <ele>513</ele>
        <time>2011-01-23T10:36:41Z</time>
      </trkpt>
      <trkpt lat="43.68015" lon="6.11799">
        <ele>512</ele>
        <time>2011-01-23T10:36:42Z</time>
      </trkpt>
      <trkpt lat="43.68008" lon="6.1179">
        <ele>511</ele>
        <time>2011-01-23T10:36:54Z</time>
      </trkpt>
      <trkpt lat="43.68007" lon="6.11788">
        <ele>510</ele>
        <time>2011-01-23T10:36:56Z</time>
      </trkpt>
      <trkpt lat="43.68001" lon="6.1178">
        <ele>510</ele>
        <time>2011-01-23T10:37:07Z</time>
      </trkpt>
      <trkpt lat="43.68001" lon="6.1177">
        <ele>510</ele>
        <time>2011-01-23T10:37:22Z</time>
      </trkpt>
      <trkpt lat="43.68001" lon="6.11769">
        <ele>510</ele>
        <time>2011-01-23T10:37:58Z</time>
      </trkpt>
      <trkpt lat="43.68001" lon="6.11769">
        <ele>515</ele>
        <time>2011-01-23T10:38:14Z</time>
      </trkpt>
      <trkpt lat="43.68001" lon="6.11769">
        <ele>511</ele>
        <time>2011-01-23T10:38:15Z</time>
      </trkpt>
      <trkpt lat="43.68" lon="6.11764">
        <ele>511</ele>
        <time>2011-01-23T10:38:33Z</time>
      </trkpt>
      <trkpt lat="43.68005" lon="6.11755">
        <ele>511</ele>
        <time>2011-01-23T10:39:51Z</time>
      </trkpt>
      <trkpt lat="43.68006" lon="6.11753">
        <ele>511</ele>
        <time>2011-01-23T10:39:52Z</time>
      </trkpt>
      <trkpt lat="43.68012" lon="6.11746">
        <ele>510</ele>
        <time>2011-01-23T10:40:00Z</time>
      </trkpt>
      <trkpt lat="43.68016" lon="6.11745">
        <ele>510</ele>
        <time>2011-01-23T10:40:03Z</time>
      </trkpt>
      <trkpt lat="43.68029" lon="6.11743">
        <ele>510</ele>
        <time>2011-01-23T10:40:16Z</time>
      </trkpt>
      <trkpt lat="43.68043" lon="6.11743">
        <ele>511</ele>
        <time>2011-01-23T10:40:28Z</time>
      </trkpt>
      <trkpt lat="43.68054" lon="6.11742">
        <ele>510</ele>
        <time>2011-01-23T10:40:38Z</time>
      </trkpt>
      <trkpt lat="43.68071" lon="6.11738">
        <ele>510</ele>
        <time>2011-01-23T10:40:52Z</time>
      </trkpt>
      <trkpt lat="43.68077" lon="6.11735">
        <ele>510</ele>
        <time>2011-01-23T10:41:07Z</time>
      </trkpt>
      <trkpt lat="43.68089" lon="6.11728">
        <ele>510</ele>
        <time>2011-01-23T10:42:56Z</time>
      </trkpt>
      <trkpt lat="43.68098" lon="6.11722">
        <ele>510</ele>
        <time>2011-01-23T10:43:07Z</time>
      </trkpt>
      <trkpt lat="43.68101" lon="6.11716">
        <ele>510</ele>
        <time>2011-01-23T10:43:26Z</time>
      </trkpt>
      <trkpt lat="43.68106" lon="6.117">
        <ele>510</ele>
        <time>2011-01-23T10:43:37Z</time>
      </trkpt>
      <trkpt lat="43.68106" lon="6.11683">
        <ele>508</ele>
        <time>2011-01-23T10:43:50Z</time>
      </trkpt>
      <trkpt lat="43.68106" lon="6.11672">
        <ele>507</ele>
        <time>2011-01-23T10:43:59Z</time>
      </trkpt>
      <trkpt lat="43.68109" lon="6.11657">
        <ele>507</ele>
        <time>2011-01-23T10:44:10Z</time>
      </trkpt>
      <trkpt lat="43.68113" lon="6.11649">
        <ele>507</ele>
        <time>2011-01-23T10:44:21Z</time>
      </trkpt>
      <trkpt lat="43.68121" lon="6.11641">
        <ele>506</ele>
        <time>2011-01-23T10:44:31Z</time>
      </trkpt>
      <trkpt lat="43.68129" lon="6.11632">
        <ele>506</ele>
        <time>2011-01-23T10:44:41Z</time>
      </trkpt>
      <trkpt lat="43.6814" lon="6.11624">
        <ele>505</ele>
        <time>2011-01-23T10:44:52Z</time>
      </trkpt>
      <trkpt lat="43.68144" lon="6.11621">
        <ele>506</ele>
        <time>2011-01-23T10:44:56Z</time>
      </trkpt>
      <trkpt lat="43.68155" lon="6.11612">
        <ele>506</ele>
        <time>2011-01-23T10:45:08Z</time>
      </trkpt>
      <trkpt lat="43.68164" lon="6.11605">
        <ele>506</ele>
        <time>2011-01-23T10:45:17Z</time>
      </trkpt>
      <trkpt lat="43.68173" lon="6.11594">
        <ele>506</ele>
        <time>2011-01-23T10:45:29Z</time>
      </trkpt>
      <trkpt lat="43.68187" lon="6.11584">
        <ele>505</ele>
        <time>2011-01-23T10:45:43Z</time>
      </trkpt>
      <trkpt lat="43.68195" lon="6.11577">
        <ele>505</ele>
        <time>2011-01-23T10:45:54Z</time>
      </trkpt>
      <trkpt lat="43.68201" lon="6.1157">
        <ele>504</ele>
        <time>2011-01-23T10:46:02Z</time>
      </trkpt>
      <trkpt lat="43.68212" lon="6.11557">
        <ele>504</ele>
        <time>2011-01-23T10:46:14Z</time>
      </trkpt>
      <trkpt lat="43.68214" lon="6.11553">
        <ele>504</ele>
        <time>2011-01-23T10:46:17Z</time>
      </trkpt>
      <trkpt lat="43.68217" lon="6.1155">
        <ele>504</ele>
        <time>2011-01-23T10:46:20Z</time>
      </trkpt>
      <trkpt lat="43.68219" lon="6.11548">
        <ele>504</ele>
        <time>2011-01-23T10:46:22Z</time>
      </trkpt>
      <trkpt lat="43.68223" lon="6.11534">
        <ele>504</ele>
        <time>2011-01-23T10:46:33Z</time>
      </trkpt>
      <trkpt lat="43.68224" lon="6.11533">
        <ele>504</ele>
        <time>2011-01-23T10:46:34Z</time>
      </trkpt>
      <trkpt lat="43.68226" lon="6.11528">
        <ele>504</ele>
        <time>2011-01-23T10:46:38Z</time>
      </trkpt>
      <trkpt lat="43.68233" lon="6.11516">
        <ele>504</ele>
        <time>2011-01-23T10:46:49Z</time>
      </trkpt>
      <trkpt lat="43.68237" lon="6.11501">
        <ele>503</ele>
        <time>2011-01-23T10:46:59Z</time>
      </trkpt>
      <trkpt lat="43.68247" lon="6.11489">
        <ele>503</ele>
        <time>2011-01-23T10:47:10Z</time>
      </trkpt>
      <trkpt lat="43.6826" lon="6.11477">
        <ele>503</ele>
        <time>2011-01-23T10:47:23Z</time>
      </trkpt>
      <trkpt lat="43.68276" lon="6.11471">
        <ele>502</ele>
        <time>2011-01-23T10:47:37Z</time>
      </trkpt>
      <trkpt lat="43.6829" lon="6.11472">
        <ele>502</ele>
        <time>2011-01-23T10:47:50Z</time>
      </trkpt>
      <trkpt lat="43.68305" lon="6.1148">
        <ele>502</ele>
        <time>2011-01-23T10:48:04Z</time>
      </trkpt>
      <trkpt lat="43.68323" lon="6.11486">
        <ele>502</ele>
        <time>2011-01-23T10:48:20Z</time>
      </trkpt>
      <trkpt lat="43.68336" lon="6.11483">
        <ele>502</ele>
        <time>2011-01-23T10:48:31Z</time>
      </trkpt>
      <trkpt lat="43.68351" lon="6.11475">
        <ele>502</ele>
        <time>2011-01-23T10:48:44Z</time>
      </trkpt>
      <trkpt lat="43.68366" lon="6.11468">
        <ele>501</ele>
        <time>2011-01-23T10:48:57Z</time>
      </trkpt>
      <trkpt lat="43.6838" lon="6.11461">
        <ele>501</ele>
        <time>2011-01-23T10:49:10Z</time>
      </trkpt>
      <trkpt lat="43.68389" lon="6.11448">
        <ele>500</ele>
        <time>2011-01-23T10:49:22Z</time>
      </trkpt>
      <trkpt lat="43.6839" lon="6.11447">
        <ele>500</ele>
        <time>2011-01-23T10:49:23Z</time>
      </trkpt>
      <trkpt lat="43.68391" lon="6.11422">
        <ele>500</ele>
        <time>2011-01-23T10:49:37Z</time>
      </trkpt>
      <trkpt lat="43.68392" lon="6.11403">
        <ele>500</ele>
        <time>2011-01-23T10:49:48Z</time>
      </trkpt>
      <trkpt lat="43.68393" lon="6.11391">
        <ele>500</ele>
        <time>2011-01-23T10:49:55Z</time>
      </trkpt>
      <trkpt lat="43.68398" lon="6.11375">
        <ele>500</ele>
        <time>2011-01-23T10:50:05Z</time>
      </trkpt>
      <trkpt lat="43.68403" lon="6.11365">
        <ele>500</ele>
        <time>2011-01-23T10:50:13Z</time>
      </trkpt>
      <trkpt lat="43.68418" lon="6.11355">
        <ele>500</ele>
        <time>2011-01-23T10:50:25Z</time>
      </trkpt>
      <trkpt lat="43.68434" lon="6.11354">
        <ele>500</ele>
        <time>2011-01-23T10:50:38Z</time>
      </trkpt>
      <trkpt lat="43.68447" lon="6.11355">
        <ele>499</ele>
        <time>2011-01-23T10:50:49Z</time>
      </trkpt>
      <trkpt lat="43.68464" lon="6.11364">
        <ele>500</ele>
        <time>2011-01-23T10:51:04Z</time>
      </trkpt>
      <trkpt lat="43.6847" lon="6.11368">
        <ele>500</ele>
        <time>2011-01-23T10:51:10Z</time>
      </trkpt>
      <trkpt lat="43.68482" lon="6.11378">
        <ele>499</ele>
        <time>2011-01-23T10:51:23Z</time>
      </trkpt>
      <trkpt lat="43.68492" lon="6.11391">
        <ele>499</ele>
        <time>2011-01-23T10:51:34Z</time>
      </trkpt>
      <trkpt lat="43.68501" lon="6.114">
        <ele>499</ele>
        <time>2011-01-23T10:51:51Z</time>
      </trkpt>
      <trkpt lat="43.68504" lon="6.114">
        <ele>499</ele>
        <time>2011-01-23T10:52:04Z</time>
      </trkpt>
      <trkpt lat="43.68506" lon="6.11405">
        <ele>498</ele>
        <time>2011-01-23T10:52:22Z</time>
      </trkpt>
      <trkpt lat="43.68507" lon="6.11409">
        <ele>499</ele>
        <time>2011-01-23T10:52:25Z</time>
      </trkpt>
      <trkpt lat="43.68509" lon="6.11423">
        <ele>498</ele>
        <time>2011-01-23T10:52:32Z</time>
      </trkpt>
      <trkpt lat="43.68513" lon="6.11448">
        <ele>498</ele>
        <time>2011-01-23T10:52:44Z</time>
      </trkpt>
      <trkpt lat="43.6852" lon="6.11466">
        <ele>497</ele>
        <time>2011-01-23T10:52:57Z</time>
      </trkpt>
      <trkpt lat="43.68525" lon="6.11472">
        <ele>497</ele>
        <time>2011-01-23T10:53:04Z</time>
      </trkpt>
      <trkpt lat="43.68533" lon="6.11474">
        <ele>497</ele>
        <time>2011-01-23T10:53:12Z</time>
      </trkpt>
      <trkpt lat="43.68544" lon="6.11463">
        <ele>497</ele>
        <time>2011-01-23T10:53:24Z</time>
      </trkpt>
      <trkpt lat="43.68546" lon="6.11458">
        <ele>497</ele>
        <time>2011-01-23T10:53:27Z</time>
      </trkpt>
      <trkpt lat="43.68547" lon="6.11442">
        <ele>497</ele>
        <time>2011-01-23T10:53:36Z</time>
      </trkpt>
      <trkpt lat="43.68548" lon="6.11438">
        <ele>497</ele>
        <time>2011-01-23T10:53:39Z</time>
      </trkpt>
      <trkpt lat="43.68549" lon="6.11431">
        <ele>497</ele>
        <time>2011-01-23T10:53:43Z</time>
      </trkpt>
      <trkpt lat="43.68551" lon="6.11423">
        <ele>496</ele>
        <time>2011-01-23T10:53:48Z</time>
      </trkpt>
      <trkpt lat="43.68554" lon="6.11411">
        <ele>497</ele>
        <time>2011-01-23T10:53:55Z</time>
      </trkpt>
      <trkpt lat="43.68555" lon="6.11403">
        <ele>496</ele>
        <time>2011-01-23T10:53:59Z</time>
      </trkpt>
      <trkpt lat="43.68559" lon="6.11391">
        <ele>495</ele>
        <time>2011-01-23T10:54:07Z</time>
      </trkpt>
      <trkpt lat="43.6856" lon="6.11384">
        <ele>496</ele>
        <time>2011-01-23T10:54:11Z</time>
      </trkpt>
      <trkpt lat="43.68561" lon="6.11376">
        <ele>496</ele>
        <time>2011-01-23T10:54:15Z</time>
      </trkpt>
      <trkpt lat="43.68568" lon="6.11364">
        <ele>496</ele>
        <time>2011-01-23T10:54:24Z</time>
      </trkpt>
      <trkpt lat="43.68575" lon="6.11358">
        <ele>496</ele>
        <time>2011-01-23T10:54:30Z</time>
      </trkpt>
      <trkpt lat="43.68581" lon="6.11355">
        <ele>497</ele>
        <time>2011-01-23T10:54:35Z</time>
      </trkpt>
      <trkpt lat="43.68582" lon="6.11353">
        <ele>497</ele>
        <time>2011-01-23T10:54:37Z</time>
      </trkpt>
      <trkpt lat="43.68586" lon="6.1135">
        <ele>496</ele>
        <time>2011-01-23T10:54:40Z</time>
      </trkpt>
      <trkpt lat="43.6859" lon="6.11348">
        <ele>495</ele>
        <time>2011-01-23T10:54:44Z</time>
      </trkpt>
      <trkpt lat="43.68591" lon="6.11345">
        <ele>495</ele>
        <time>2011-01-23T10:54:46Z</time>
      </trkpt>
      <trkpt lat="43.68609" lon="6.11351">
        <ele>495</ele>
        <time>2011-01-23T10:54:59Z</time>
      </trkpt>
      <trkpt lat="43.68613" lon="6.11352">
        <ele>495</ele>
        <time>2011-01-23T10:55:02Z</time>
      </trkpt>
      <trkpt lat="43.68623" lon="6.11356">
        <ele>495</ele>
        <time>2011-01-23T10:55:10Z</time>
      </trkpt>
      <trkpt lat="43.68625" lon="6.11358">
        <ele>496</ele>
        <time>2011-01-23T10:55:12Z</time>
      </trkpt>
      <trkpt lat="43.6863" lon="6.1136">
        <ele>496</ele>
        <time>2011-01-23T10:55:16Z</time>
      </trkpt>
      <trkpt lat="43.68649" lon="6.11364">
        <ele>495</ele>
        <time>2011-01-23T10:55:31Z</time>
      </trkpt>
      <trkpt lat="43.68652" lon="6.11364">
        <ele>494</ele>
        <time>2011-01-23T10:55:34Z</time>
      </trkpt>
      <trkpt lat="43.68671" lon="6.11368">
        <ele>494</ele>
        <time>2011-01-23T10:55:50Z</time>
      </trkpt>
      <trkpt lat="43.68684" lon="6.11369">
        <ele>495</ele>
        <time>2011-01-23T10:56:02Z</time>
      </trkpt>
      <trkpt lat="43.68699" lon="6.11372">
        <ele>495</ele>
        <time>2011-01-23T10:56:15Z</time>
      </trkpt>
      <trkpt lat="43.68712" lon="6.11375">
        <ele>495</ele>
        <time>2011-01-23T10:56:26Z</time>
      </trkpt>
      <trkpt lat="43.68715" lon="6.11377">
        <ele>495</ele>
        <time>2011-01-23T10:56:29Z</time>
      </trkpt>
      <trkpt lat="43.68731" lon="6.11374">
        <ele>495</ele>
        <time>2011-01-23T10:56:42Z</time>
      </trkpt>
      <trkpt lat="43.68745" lon="6.11364">
        <ele>495</ele>
        <time>2011-01-23T10:56:56Z</time>
      </trkpt>
      <trkpt lat="43.68755" lon="6.11371">
        <ele>494</ele>
        <time>2011-01-23T10:57:07Z</time>
      </trkpt>
      <trkpt lat="43.68758" lon="6.1137">
        <ele>494</ele>
        <time>2011-01-23T10:57:10Z</time>
      </trkpt>
      <trkpt lat="43.68764" lon="6.1137">
        <ele>494</ele>
        <time>2011-01-23T10:57:14Z</time>
      </trkpt>
      <trkpt lat="43.68772" lon="6.11366">
        <ele>494</ele>
        <time>2011-01-23T10:57:20Z</time>
      </trkpt>
      <trkpt lat="43.68775" lon="6.11362">
        <ele>494</ele>
        <time>2011-01-23T10:57:23Z</time>
      </trkpt>
      <trkpt lat="43.68779" lon="6.11358">
        <ele>494</ele>
        <time>2011-01-23T10:57:29Z</time>
      </trkpt>
      <trkpt lat="43.68779" lon="6.11352">
        <ele>493</ele>
        <time>2011-01-23T10:57:33Z</time>
      </trkpt>
      <trkpt lat="43.68779" lon="6.11349">
        <ele>493</ele>
        <time>2011-01-23T10:57:35Z</time>
      </trkpt>
      <trkpt lat="43.68777" lon="6.1133">
        <ele>494</ele>
        <time>2011-01-23T10:57:48Z</time>
      </trkpt>
      <trkpt lat="43.68777" lon="6.11315">
        <ele>495</ele>
        <time>2011-01-23T10:58:02Z</time>
      </trkpt>
      <trkpt lat="43.68779" lon="6.11305">
        <ele>496</ele>
        <time>2011-01-23T10:58:12Z</time>
      </trkpt>
      <trkpt lat="43.6878" lon="6.11304">
        <ele>497</ele>
        <time>2011-01-23T10:58:46Z</time>
      </trkpt>
      <trkpt lat="43.68782" lon="6.11302">
        <ele>498</ele>
        <time>2011-01-23T11:00:28Z</time>
      </trkpt>
      <trkpt lat="43.68787" lon="6.11301">
        <ele>499</ele>
        <time>2011-01-23T11:00:34Z</time>
      </trkpt>
      <trkpt lat="43.68788" lon="6.113">
        <ele>498</ele>
        <time>2011-01-23T11:00:36Z</time>
      </trkpt>
      <trkpt lat="43.6879" lon="6.11302">
        <ele>498</ele>
        <time>2011-01-23T11:00:38Z</time>
      </trkpt>
      <trkpt lat="43.68793" lon="6.11304">
        <ele>498</ele>
        <time>2011-01-23T11:00:41Z</time>
      </trkpt>
      <trkpt lat="43.68796" lon="6.11308">
        <ele>498</ele>
        <time>2011-01-23T11:00:46Z</time>
      </trkpt>
      <trkpt lat="43.68808" lon="6.11317">
        <ele>498</ele>
        <time>2011-01-23T11:00:59Z</time>
      </trkpt>
      <trkpt lat="43.6882" lon="6.11324">
        <ele>499</ele>
        <time>2011-01-23T11:01:11Z</time>
      </trkpt>
      <trkpt lat="43.68831" lon="6.11327">
        <ele>499</ele>
        <time>2011-01-23T11:01:23Z</time>
      </trkpt>
      <trkpt lat="43.68834" lon="6.11332">
        <ele>499</ele>
        <time>2011-01-23T11:01:27Z</time>
      </trkpt>
      <trkpt lat="43.68834" lon="6.11339">
        <ele>500</ele>
        <time>2011-01-23T11:01:42Z</time>
      </trkpt>
      <trkpt lat="43.68833" lon="6.11341">
        <ele>500</ele>
        <time>2011-01-23T11:01:55Z</time>
      </trkpt>
      <trkpt lat="43.68833" lon="6.1135">
        <ele>503</ele>
        <time>2011-01-23T11:02:16Z</time>
      </trkpt>
      <trkpt lat="43.68833" lon="6.11351">
        <ele>503</ele>
        <time>2011-01-23T11:02:17Z</time>
      </trkpt>
      <trkpt lat="43.68831" lon="6.11354">
        <ele>503</ele>
        <time>2011-01-23T11:02:27Z</time>
      </trkpt>
      <trkpt lat="43.68831" lon="6.11354">
        <ele>506</ele>
        <time>2011-01-23T11:03:06Z</time>
      </trkpt>
      <trkpt lat="43.68831" lon="6.11354">
        <ele>503</ele>
        <time>2011-01-23T11:03:09Z</time>
      </trkpt>
      <trkpt lat="43.68831" lon="6.11354">
        <ele>499</ele>
        <time>2011-01-23T11:03:20Z</time>
      </trkpt>
      <trkpt lat="43.68831" lon="6.11354">
        <ele>507</ele>
        <time>2011-01-23T11:51:08Z</time>
      </trkpt>
      <trkpt lat="43.68831" lon="6.11354">
        <ele>505</ele>
        <time>2011-01-23T11:51:09Z</time>
      </trkpt>
      <trkpt lat="43.68827" lon="6.11386">
        <ele>507</ele>
        <time>2011-01-23T11:51:12Z</time>
      </trkpt>
      <trkpt lat="43.68829" lon="6.11376">
        <ele>505</ele>
        <time>2011-01-23T11:51:45Z</time>
      </trkpt>
      <trkpt lat="43.68826" lon="6.1138">
        <ele>505</ele>
        <time>2011-01-23T11:52:17Z</time>
      </trkpt>
      <trkpt lat="43.68825" lon="6.1138">
        <ele>509</ele>
        <time>2011-01-23T11:56:06Z</time>
      </trkpt>
      <trkpt lat="43.68825" lon="6.1138">
        <ele>503</ele>
        <time>2011-01-23T11:56:13Z</time>
      </trkpt>
      <trkpt lat="43.68825" lon="6.1138">
        <ele>507</ele>
        <time>2011-01-23T11:56:14Z</time>
      </trkpt>
      <trkpt lat="43.68825" lon="6.1138">
        <ele>507</ele>
        <time>2011-01-23T11:56:33Z</time>
      </trkpt>
      <trkpt lat="43.68826" lon="6.11375">
        <ele>507</ele>
        <time>2011-01-23T11:57:16Z</time>
      </trkpt>
      <trkpt lat="43.68832" lon="6.1136">
        <ele>503</ele>
        <time>2011-01-23T11:59:46Z</time>
      </trkpt>
      <trkpt lat="43.68832" lon="6.1136">
        <ele>508</ele>
        <time>2011-01-23T11:59:47Z</time>
      </trkpt>
      <trkpt lat="43.68832" lon="6.1135">
        <ele>506</ele>
        <time>2011-01-23T11:59:59Z</time>
      </trkpt>
      <trkpt lat="43.68831" lon="6.11349">
        <ele>505</ele>
        <time>2011-01-23T12:00:30Z</time>
      </trkpt>
      <trkpt lat="43.68833" lon="6.11343">
        <ele>504</ele>
        <time>2011-01-23T12:01:55Z</time>
      </trkpt>
      <trkpt lat="43.68834" lon="6.11339">
        <ele>503</ele>
        <time>2011-01-23T12:02:31Z</time>
      </trkpt>
      <trkpt lat="43.68835" lon="6.11336">
        <ele>503</ele>
        <time>2011-01-23T12:04:14Z</time>
      </trkpt>
      <trkpt lat="43.68823" lon="6.11323">
        <ele>502</ele>
        <time>2011-01-23T12:05:38Z</time>
      </trkpt>
      <trkpt lat="43.68813" lon="6.11317">
        <ele>501</ele>
        <time>2011-01-23T12:05:51Z</time>
      </trkpt>
      <trkpt lat="43.68804" lon="6.11309">
        <ele>501</ele>
        <time>2011-01-23T12:06:05Z</time>
      </trkpt>
      <trkpt lat="43.68793" lon="6.11302">
        <ele>502</ele>
        <time>2011-01-23T12:06:19Z</time>
      </trkpt>
      <trkpt lat="43.68781" lon="6.11298">
        <ele>502</ele>
        <time>2011-01-23T12:06:33Z</time>
      </trkpt>
      <trkpt lat="43.68775" lon="6.11296">
        <ele>503</ele>
        <time>2011-01-23T12:06:43Z</time>
      </trkpt>
      <trkpt lat="43.6877" lon="6.11304">
        <ele>503</ele>
        <time>2011-01-23T12:06:53Z</time>
      </trkpt>
      <trkpt lat="43.68762" lon="6.11311">
        <ele>504</ele>
        <time>2011-01-23T12:07:07Z</time>
      </trkpt>
      <trkpt lat="43.68754" lon="6.11312">
        <ele>505</ele>
        <time>2011-01-23T12:07:19Z</time>
      </trkpt>
      <trkpt lat="43.68743" lon="6.11313">
        <ele>506</ele>
        <time>2011-01-23T12:07:32Z</time>
      </trkpt>
      <trkpt lat="43.68734" lon="6.11316">
        <ele>507</ele>
        <time>2011-01-23T12:07:43Z</time>
      </trkpt>
      <trkpt lat="43.68725" lon="6.11315">
        <ele>507</ele>
        <time>2011-01-23T12:07:56Z</time>
      </trkpt>
      <trkpt lat="43.68716" lon="6.11307">
        <ele>509</ele>
        <time>2011-01-23T12:08:11Z</time>
      </trkpt>
      <trkpt lat="43.68706" lon="6.11306">
        <ele>510</ele>
        <time>2011-01-23T12:08:27Z</time>
      </trkpt>
      <trkpt lat="43.68693" lon="6.11301">
        <ele>512</ele>
        <time>2011-01-23T12:08:42Z</time>
      </trkpt>
      <trkpt lat="43.68683" lon="6.11298">
        <ele>513</ele>
        <time>2011-01-23T12:08:56Z</time>
      </trkpt>
      <trkpt lat="43.68676" lon="6.11297">
        <ele>514</ele>
        <time>2011-01-23T12:09:07Z</time>
      </trkpt>
      <trkpt lat="43.68669" lon="6.11294">
        <ele>514</ele>
        <time>2011-01-23T12:09:17Z</time>
      </trkpt>
      <trkpt lat="43.68659" lon="6.11289">
        <ele>516</ele>
        <time>2011-01-23T12:09:31Z</time>
      </trkpt>
      <trkpt lat="43.68653" lon="6.11289">
        <ele>517</ele>
        <time>2011-01-23T12:09:41Z</time>
      </trkpt>
      <trkpt lat="43.68645" lon="6.1129">
        <ele>520</ele>
        <time>2011-01-23T12:09:52Z</time>
      </trkpt>
      <trkpt lat="43.68637" lon="6.11294">
        <ele>520</ele>
        <time>2011-01-23T12:10:06Z</time>
      </trkpt>
      <trkpt lat="43.68624" lon="6.11295">
        <ele>520</ele>
        <time>2011-01-23T12:10:22Z</time>
      </trkpt>
      <trkpt lat="43.68615" lon="6.11291">
        <ele>522</ele>
        <time>2011-01-23T12:10:36Z</time>
      </trkpt>
      <trkpt lat="43.68607" lon="6.11286">
        <ele>523</ele>
        <time>2011-01-23T12:10:50Z</time>
      </trkpt>
      <trkpt lat="43.686" lon="6.1128">
        <ele>523</ele>
        <time>2011-01-23T12:11:02Z</time>
      </trkpt>
      <trkpt lat="43.68588" lon="6.11275">
        <ele>525</ele>
        <time>2011-01-23T12:11:15Z</time>
      </trkpt>
      <trkpt lat="43.68585" lon="6.11273">
        <ele>526</ele>
        <time>2011-01-23T12:11:20Z</time>
      </trkpt>
      <trkpt lat="43.68583" lon="6.11268">
        <ele>525</ele>
        <time>2011-01-23T12:11:25Z</time>
      </trkpt>
      <trkpt lat="43.68574" lon="6.11264">
        <ele>526</ele>
        <time>2011-01-23T12:11:40Z</time>
      </trkpt>
      <trkpt lat="43.68563" lon="6.11266">
        <ele>526</ele>
        <time>2011-01-23T12:11:52Z</time>
      </trkpt>
      <trkpt lat="43.68553" lon="6.11264">
        <ele>527</ele>
        <time>2011-01-23T12:12:04Z</time>
      </trkpt>
      <trkpt lat="43.68543" lon="6.11268">
        <ele>527</ele>
        <time>2011-01-23T12:12:17Z</time>
      </trkpt>
      <trkpt lat="43.68531" lon="6.11273">
        <ele>528</ele>
        <time>2011-01-23T12:12:31Z</time>
      </trkpt>
      <trkpt lat="43.68527" lon="6.11276">
        <ele>527</ele>
        <time>2011-01-23T12:12:37Z</time>
      </trkpt>
      <trkpt lat="43.68522" lon="6.11277">
        <ele>528</ele>
        <time>2011-01-23T12:12:53Z</time>
      </trkpt>
      <trkpt lat="43.68512" lon="6.11279">
        <ele>529</ele>
        <time>2011-01-23T12:13:05Z</time>
      </trkpt>
      <trkpt lat="43.68503" lon="6.11274">
        <ele>530</ele>
        <time>2011-01-23T12:13:18Z</time>
      </trkpt>
      <trkpt lat="43.68495" lon="6.11274">
        <ele>530</ele>
        <time>2011-01-23T12:13:27Z</time>
      </trkpt>
      <trkpt lat="43.68485" lon="6.11276">
        <ele>531</ele>
        <time>2011-01-23T12:13:41Z</time>
      </trkpt>
      <trkpt lat="43.68478" lon="6.11272">
        <ele>532</ele>
        <time>2011-01-23T12:14:02Z</time>
      </trkpt>
      <trkpt lat="43.68469" lon="6.11272">
        <ele>534</ele>
        <time>2011-01-23T12:14:15Z</time>
      </trkpt>
      <trkpt lat="43.68459" lon="6.11273">
        <ele>534</ele>
        <time>2011-01-23T12:14:27Z</time>
      </trkpt>
      <trkpt lat="43.6845" lon="6.11272">
        <ele>535</ele>
        <time>2011-01-23T12:14:42Z</time>
      </trkpt>
      <trkpt lat="43.68446" lon="6.11276">
        <ele>534</ele>
        <time>2011-01-23T12:15:15Z</time>
      </trkpt>
      <trkpt lat="43.68433" lon="6.11279">
        <ele>534</ele>
        <time>2011-01-23T12:16:17Z</time>
      </trkpt>
      <trkpt lat="43.68422" lon="6.11283">
        <ele>535</ele>
        <time>2011-01-23T12:16:30Z</time>
      </trkpt>
      <trkpt lat="43.68412" lon="6.11286">
        <ele>536</ele>
        <time>2011-01-23T12:16:41Z</time>
      </trkpt>
      <trkpt lat="43.68403" lon="6.11284">
        <ele>536</ele>
        <time>2011-01-23T12:16:54Z</time>
      </trkpt>
      <trkpt lat="43.68398" lon="6.11283">
        <ele>536</ele>
        <time>2011-01-23T12:17:06Z</time>
      </trkpt>
      <trkpt lat="43.68385" lon="6.11285">
        <ele>538</ele>
        <time>2011-01-23T12:17:22Z</time>
      </trkpt>
      <trkpt lat="43.6838" lon="6.11284">
        <ele>538</ele>
        <time>2011-01-23T12:17:35Z</time>
      </trkpt>
      <trkpt lat="43.68365" lon="6.11282">
        <ele>539</ele>
        <time>2011-01-23T12:17:51Z</time>
      </trkpt>
      <trkpt lat="43.68355" lon="6.11285">
        <ele>539</ele>
        <time>2011-01-23T12:18:06Z</time>
      </trkpt>
      <trkpt lat="43.68342" lon="6.11292">
        <ele>540</ele>
        <time>2011-01-23T12:18:19Z</time>
      </trkpt>
      <trkpt lat="43.68335" lon="6.11297">
        <ele>540</ele>
        <time>2011-01-23T12:18:28Z</time>
      </trkpt>
      <trkpt lat="43.68325" lon="6.113">
        <ele>541</ele>
        <time>2011-01-23T12:18:46Z</time>
      </trkpt>
      <trkpt lat="43.68311" lon="6.11306">
        <ele>542</ele>
        <time>2011-01-23T12:19:04Z</time>
      </trkpt>
      <trkpt lat="43.683" lon="6.1131">
        <ele>543</ele>
        <time>2011-01-23T12:19:18Z</time>
      </trkpt>
      <trkpt lat="43.6829" lon="6.11314">
        <ele>544</ele>
        <time>2011-01-23T12:19:29Z</time>
      </trkpt>
      <trkpt lat="43.68281" lon="6.11315">
        <ele>545</ele>
        <time>2011-01-23T12:19:40Z</time>
      </trkpt>
      <trkpt lat="43.68272" lon="6.11317">
        <ele>546</ele>
        <time>2011-01-23T12:19:50Z</time>
      </trkpt>
      <trkpt lat="43.68264" lon="6.11317">
        <ele>546</ele>
        <time>2011-01-23T12:20:00Z</time>
      </trkpt>
      <trkpt lat="43.68257" lon="6.11318">
        <ele>547</ele>
        <time>2011-01-23T12:20:10Z</time>
      </trkpt>
      <trkpt lat="43.68248" lon="6.1132">
        <ele>548</ele>
        <time>2011-01-23T12:20:25Z</time>
      </trkpt>
      <trkpt lat="43.68234" lon="6.11327">
        <ele>549</ele>
        <time>2011-01-23T12:20:40Z</time>
      </trkpt>
      <trkpt lat="43.68227" lon="6.11327">
        <ele>549</ele>
        <time>2011-01-23T12:20:48Z</time>
      </trkpt>
      <trkpt lat="43.68217" lon="6.11325">
        <ele>550</ele>
        <time>2011-01-23T12:21:00Z</time>
      </trkpt>
      <trkpt lat="43.68205" lon="6.11326">
        <ele>550</ele>
        <time>2011-01-23T12:21:12Z</time>
      </trkpt>
      <trkpt lat="43.68192" lon="6.11333">
        <ele>551</ele>
        <time>2011-01-23T12:21:27Z</time>
      </trkpt>
      <trkpt lat="43.68183" lon="6.11334">
        <ele>553</ele>
        <time>2011-01-23T12:21:37Z</time>
      </trkpt>
      <trkpt lat="43.68174" lon="6.11338">
        <ele>553</ele>
        <time>2011-01-23T12:21:48Z</time>
      </trkpt>
      <trkpt lat="43.68164" lon="6.11338">
        <ele>553</ele>
        <time>2011-01-23T12:22:00Z</time>
      </trkpt>
      <trkpt lat="43.68153" lon="6.11338">
        <ele>555</ele>
        <time>2011-01-23T12:22:13Z</time>
      </trkpt>
      <trkpt lat="43.68145" lon="6.11341">
        <ele>556</ele>
        <time>2011-01-23T12:22:24Z</time>
      </trkpt>
      <trkpt lat="43.68134" lon="6.11343">
        <ele>557</ele>
        <time>2011-01-23T12:22:36Z</time>
      </trkpt>
      <trkpt lat="43.68126" lon="6.11347">
        <ele>557</ele>
        <time>2011-01-23T12:22:46Z</time>
      </trkpt>
      <trkpt lat="43.68114" lon="6.11351">
        <ele>558</ele>
        <time>2011-01-23T12:22:58Z</time>
      </trkpt>
      <trkpt lat="43.68102" lon="6.11353">
        <ele>559</ele>
        <time>2011-01-23T12:23:11Z</time>
      </trkpt>
      <trkpt lat="43.68092" lon="6.11357">
        <ele>559</ele>
        <time>2011-01-23T12:23:22Z</time>
      </trkpt>
      <trkpt lat="43.68084" lon="6.11362">
        <ele>560</ele>
        <time>2011-01-23T12:23:33Z</time>
      </trkpt>
      <trkpt lat="43.68072" lon="6.11365">
        <ele>560</ele>
        <time>2011-01-23T12:23:49Z</time>
      </trkpt>
      <trkpt lat="43.68065" lon="6.11366">
        <ele>561</ele>
        <time>2011-01-23T12:23:59Z</time>
      </trkpt>
      <trkpt lat="43.68057" lon="6.11372">
        <ele>561</ele>
        <time>2011-01-23T12:24:10Z</time>
      </trkpt>
      <trkpt lat="43.68049" lon="6.11381">
        <ele>561</ele>
        <time>2011-01-23T12:24:20Z</time>
      </trkpt>
      <trkpt lat="43.6804" lon="6.11387">
        <ele>561</ele>
        <time>2011-01-23T12:24:31Z</time>
      </trkpt>
      <trkpt lat="43.68031" lon="6.11396">
        <ele>561</ele>
        <time>2011-01-23T12:24:45Z</time>
      </trkpt>
      <trkpt lat="43.68024" lon="6.11405">
        <ele>561</ele>
        <time>2011-01-23T12:24:55Z</time>
      </trkpt>
      <trkpt lat="43.6801" lon="6.11415">
        <ele>562</ele>
        <time>2011-01-23T12:25:09Z</time>
      </trkpt>
      <trkpt lat="43.68001" lon="6.11424">
        <ele>562</ele>
        <time>2011-01-23T12:25:20Z</time>
      </trkpt>
      <trkpt lat="43.6799" lon="6.11429">
        <ele>562</ele>
        <time>2011-01-23T12:25:32Z</time>
      </trkpt>
      <trkpt lat="43.67981" lon="6.11437">
        <ele>563</ele>
        <time>2011-01-23T12:25:42Z</time>
      </trkpt>
      <trkpt lat="43.67971" lon="6.11443">
        <ele>563</ele>
        <time>2011-01-23T12:25:52Z</time>
      </trkpt>
      <trkpt lat="43.67961" lon="6.11452">
        <ele>563</ele>
        <time>2011-01-23T12:26:03Z</time>
      </trkpt>
      <trkpt lat="43.67947" lon="6.11455">
        <ele>563</ele>
        <time>2011-01-23T12:26:16Z</time>
      </trkpt>
      <trkpt lat="43.67935" lon="6.11457">
        <ele>563</ele>
        <time>2011-01-23T12:26:29Z</time>
      </trkpt>
      <trkpt lat="43.67927" lon="6.11458">
        <ele>563</ele>
        <time>2011-01-23T12:26:41Z</time>
      </trkpt>
      <trkpt lat="43.67916" lon="6.11458">
        <ele>563</ele>
        <time>2011-01-23T12:26:53Z</time>
      </trkpt>
      <trkpt lat="43.67906" lon="6.1146">
        <ele>563</ele>
        <time>2011-01-23T12:27:04Z</time>
      </trkpt>
      <trkpt lat="43.67895" lon="6.11456">
        <ele>564</ele>
        <time>2011-01-23T12:27:19Z</time>
      </trkpt>
      <trkpt lat="43.67894" lon="6.11455">
        <ele>567</ele>
        <time>2011-01-23T12:29:38Z</time>
      </trkpt>
      <trkpt lat="43.67894" lon="6.11455">
        <ele>564</ele>
        <time>2011-01-23T12:29:41Z</time>
      </trkpt>
      <trkpt lat="43.67874" lon="6.11453">
        <ele>564</ele>
        <time>2011-01-23T12:33:59Z</time>
      </trkpt>
      <trkpt lat="43.67862" lon="6.11453">
        <ele>564</ele>
        <time>2011-01-23T12:34:12Z</time>
      </trkpt>
      <trkpt lat="43.67852" lon="6.11455">
        <ele>564</ele>
        <time>2011-01-23T12:34:23Z</time>
      </trkpt>
      <trkpt lat="43.67837" lon="6.11461">
        <ele>564</ele>
        <time>2011-01-23T12:34:38Z</time>
      </trkpt>
      <trkpt lat="43.67823" lon="6.11461">
        <ele>564</ele>
        <time>2011-01-23T12:34:52Z</time>
      </trkpt>
      <trkpt lat="43.6781" lon="6.11466">
        <ele>564</ele>
        <time>2011-01-23T12:35:03Z</time>
      </trkpt>
      <trkpt lat="43.67804" lon="6.11466">
        <ele>564</ele>
        <time>2011-01-23T12:35:09Z</time>
      </trkpt>
      <trkpt lat="43.678" lon="6.11466">
        <ele>564</ele>
        <time>2011-01-23T12:35:12Z</time>
      </trkpt>
      <trkpt lat="43.67787" lon="6.11467">
        <ele>564</ele>
        <time>2011-01-23T12:35:24Z</time>
      </trkpt>
      <trkpt lat="43.67773" lon="6.1147">
        <ele>565</ele>
        <time>2011-01-23T12:35:39Z</time>
      </trkpt>
      <trkpt lat="43.67763" lon="6.11478">
        <ele>564</ele>
        <time>2011-01-23T12:35:51Z</time>
      </trkpt>
      <trkpt lat="43.67752" lon="6.11484">
        <ele>564</ele>
        <time>2011-01-23T12:36:01Z</time>
      </trkpt>
      <trkpt lat="43.67743" lon="6.11485">
        <ele>564</ele>
        <time>2011-01-23T12:36:16Z</time>
      </trkpt>
      <trkpt lat="43.67739" lon="6.11487">
        <ele>564</ele>
        <time>2011-01-23T12:36:21Z</time>
      </trkpt>
      <trkpt lat="43.67737" lon="6.11487">
        <ele>564</ele>
        <time>2011-01-23T12:36:23Z</time>
      </trkpt>
      <trkpt lat="43.67729" lon="6.11498">
        <ele>564</ele>
        <time>2011-01-23T12:36:34Z</time>
      </trkpt>
      <trkpt lat="43.67713" lon="6.11518">
        <ele>564</ele>
        <time>2011-01-23T12:36:46Z</time>
      </trkpt>
      <trkpt lat="43.67704" lon="6.11528">
        <ele>564</ele>
        <time>2011-01-23T12:36:57Z</time>
      </trkpt>
      <trkpt lat="43.677" lon="6.11535">
        <ele>565</ele>
        <time>2011-01-23T12:37:02Z</time>
      </trkpt>
      <trkpt lat="43.67689" lon="6.1155">
        <ele>564</ele>
        <time>2011-01-23T12:37:14Z</time>
      </trkpt>
      <trkpt lat="43.67684" lon="6.11553">
        <ele>564</ele>
        <time>2011-01-23T12:37:19Z</time>
      </trkpt>
      <trkpt lat="43.6767" lon="6.11567">
        <ele>564</ele>
        <time>2011-01-23T12:37:33Z</time>
      </trkpt>
      <trkpt lat="43.67656" lon="6.11577">
        <ele>564</ele>
        <time>2011-01-23T12:37:48Z</time>
      </trkpt>
      <trkpt lat="43.67644" lon="6.11596">
        <ele>564</ele>
        <time>2011-01-23T12:38:03Z</time>
      </trkpt>
      <trkpt lat="43.67629" lon="6.11617">
        <ele>564</ele>
        <time>2011-01-23T12:38:21Z</time>
      </trkpt>
      <trkpt lat="43.67626" lon="6.11621">
        <ele>564</ele>
        <time>2011-01-23T12:38:26Z</time>
      </trkpt>
      <trkpt lat="43.67624" lon="6.11626">
        <ele>564</ele>
        <time>2011-01-23T12:38:29Z</time>
      </trkpt>
      <trkpt lat="43.6762" lon="6.11629">
        <ele>564</ele>
        <time>2011-01-23T12:38:32Z</time>
      </trkpt>
      <trkpt lat="43.67603" lon="6.11644">
        <ele>564</ele>
        <time>2011-01-23T12:38:49Z</time>
      </trkpt>
      <trkpt lat="43.67601" lon="6.11647">
        <ele>563</ele>
        <time>2011-01-23T12:38:52Z</time>
      </trkpt>
      <trkpt lat="43.6758" lon="6.11662">
        <ele>563</ele>
        <time>2011-01-23T12:39:09Z</time>
      </trkpt>
      <trkpt lat="43.67578" lon="6.11664">
        <ele>563</ele>
        <time>2011-01-23T12:39:11Z</time>
      </trkpt>
      <trkpt lat="43.67562" lon="6.11664">
        <ele>563</ele>
        <time>2011-01-23T12:39:26Z</time>
      </trkpt>
      <trkpt lat="43.67561" lon="6.11663">
        <ele>563</ele>
        <time>2011-01-23T12:39:27Z</time>
      </trkpt>
      <trkpt lat="43.67547" lon="6.11661">
        <ele>563</ele>
        <time>2011-01-23T12:39:38Z</time>
      </trkpt>
      <trkpt lat="43.67533" lon="6.11656">
        <ele>563</ele>
        <time>2011-01-23T12:39:51Z</time>
      </trkpt>
      <trkpt lat="43.67524" lon="6.11654">
        <ele>563</ele>
        <time>2011-01-23T12:40:03Z</time>
      </trkpt>
      <trkpt lat="43.67513" lon="6.11655">
        <ele>562</ele>
        <time>2011-01-23T12:40:14Z</time>
      </trkpt>
      <trkpt lat="43.67499" lon="6.1165">
        <ele>563</ele>
        <time>2011-01-23T12:40:26Z</time>
      </trkpt>
      <trkpt lat="43.67487" lon="6.11644">
        <ele>563</ele>
        <time>2011-01-23T12:40:37Z</time>
      </trkpt>
      <trkpt lat="43.67478" lon="6.1164">
        <ele>563</ele>
        <time>2011-01-23T12:40:45Z</time>
      </trkpt>
      <trkpt lat="43.6746" lon="6.11647">
        <ele>563</ele>
        <time>2011-01-23T12:41:01Z</time>
      </trkpt>
      <trkpt lat="43.67445" lon="6.1165">
        <ele>564</ele>
        <time>2011-01-23T12:41:14Z</time>
      </trkpt>
      <trkpt lat="43.67432" lon="6.11656">
        <ele>564</ele>
        <time>2011-01-23T12:41:27Z</time>
      </trkpt>
      <trkpt lat="43.67427" lon="6.11659">
        <ele>564</ele>
        <time>2011-01-23T12:41:32Z</time>
      </trkpt>
      <trkpt lat="43.67411" lon="6.11669">
        <ele>565</ele>
        <time>2011-01-23T12:41:47Z</time>
      </trkpt>
      <trkpt lat="43.67398" lon="6.11684">
        <ele>565</ele>
        <time>2011-01-23T12:42:01Z</time>
      </trkpt>
      <trkpt lat="43.67387" lon="6.11694">
        <ele>565</ele>
        <time>2011-01-23T12:42:13Z</time>
      </trkpt>
      <trkpt lat="43.67376" lon="6.11703">
        <ele>564</ele>
        <time>2011-01-23T12:42:28Z</time>
      </trkpt>
      <trkpt lat="43.67357" lon="6.1172">
        <ele>565</ele>
        <time>2011-01-23T12:42:43Z</time>
      </trkpt>
      <trkpt lat="43.67344" lon="6.11731">
        <ele>565</ele>
        <time>2011-01-23T12:42:54Z</time>
      </trkpt>
      <trkpt lat="43.67333" lon="6.11739">
        <ele>565</ele>
        <time>2011-01-23T12:43:05Z</time>
      </trkpt>
      <trkpt lat="43.6732" lon="6.11744">
        <ele>566</ele>
        <time>2011-01-23T12:43:18Z</time>
      </trkpt>
      <trkpt lat="43.67305" lon="6.11752">
        <ele>567</ele>
        <time>2011-01-23T12:43:32Z</time>
      </trkpt>
      <trkpt lat="43.67292" lon="6.1176">
        <ele>567</ele>
        <time>2011-01-23T12:43:46Z</time>
      </trkpt>
      <trkpt lat="43.67278" lon="6.11769">
        <ele>568</ele>
        <time>2011-01-23T12:43:59Z</time>
      </trkpt>
      <trkpt lat="43.67265" lon="6.11781">
        <ele>569</ele>
        <time>2011-01-23T12:44:14Z</time>
      </trkpt>
      <trkpt lat="43.67257" lon="6.11787">
        <ele>569</ele>
        <time>2011-01-23T12:44:21Z</time>
      </trkpt>
      <trkpt lat="43.67251" lon="6.11792">
        <ele>569</ele>
        <time>2011-01-23T12:44:27Z</time>
      </trkpt>
      <trkpt lat="43.67236" lon="6.11804">
        <ele>570</ele>
        <time>2011-01-23T12:44:41Z</time>
      </trkpt>
      <trkpt lat="43.67224" lon="6.11819">
        <ele>571</ele>
        <time>2011-01-23T12:44:56Z</time>
      </trkpt>
      <trkpt lat="43.67215" lon="6.11832">
        <ele>571</ele>
        <time>2011-01-23T12:45:09Z</time>
      </trkpt>
      <trkpt lat="43.67205" lon="6.11848">
        <ele>572</ele>
        <time>2011-01-23T12:45:24Z</time>
      </trkpt>
      <trkpt lat="43.67198" lon="6.11858">
        <ele>572</ele>
        <time>2011-01-23T12:45:33Z</time>
      </trkpt>
      <trkpt lat="43.67179" lon="6.11872">
        <ele>572</ele>
        <time>2011-01-23T12:45:50Z</time>
      </trkpt>
      <trkpt lat="43.67165" lon="6.11881">
        <ele>573</ele>
        <time>2011-01-23T12:46:04Z</time>
      </trkpt>
      <trkpt lat="43.6715" lon="6.11894">
        <ele>574</ele>
        <time>2011-01-23T12:46:20Z</time>
      </trkpt>
      <trkpt lat="43.67147" lon="6.11897">
        <ele>574</ele>
        <time>2011-01-23T12:46:23Z</time>
      </trkpt>
      <trkpt lat="43.6714" lon="6.11905">
        <ele>574</ele>
        <time>2011-01-23T12:46:30Z</time>
      </trkpt>
      <trkpt lat="43.67128" lon="6.11924">
        <ele>574</ele>
        <time>2011-01-23T12:46:45Z</time>
      </trkpt>
      <trkpt lat="43.67116" lon="6.11939">
        <ele>573</ele>
        <time>2011-01-23T12:46:58Z</time>
      </trkpt>
      <trkpt lat="43.67115" lon="6.1194">
        <ele>573</ele>
        <time>2011-01-23T12:46:59Z</time>
      </trkpt>
      <trkpt lat="43.67101" lon="6.11958">
        <ele>574</ele>
        <time>2011-01-23T12:47:14Z</time>
      </trkpt>
      <trkpt lat="43.6709" lon="6.11972">
        <ele>574</ele>
        <time>2011-01-23T12:47:27Z</time>
      </trkpt>
      <trkpt lat="43.6708" lon="6.11983">
        <ele>574</ele>
        <time>2011-01-23T12:47:39Z</time>
      </trkpt>
      <trkpt lat="43.67069" lon="6.11991">
        <ele>575</ele>
        <time>2011-01-23T12:47:51Z</time>
      </trkpt>
      <trkpt lat="43.67054" lon="6.11999">
        <ele>575</ele>
        <time>2011-01-23T12:48:06Z</time>
      </trkpt>
      <trkpt lat="43.67046" lon="6.12008">
        <ele>576</ele>
        <time>2011-01-23T12:48:18Z</time>
      </trkpt>
      <trkpt lat="43.67035" lon="6.12021">
        <ele>576</ele>
        <time>2011-01-23T12:48:31Z</time>
      </trkpt>
      <trkpt lat="43.67028" lon="6.12024">
        <ele>576</ele>
        <time>2011-01-23T12:48:36Z</time>
      </trkpt>
      <trkpt lat="43.67008" lon="6.12025">
        <ele>577</ele>
        <time>2011-01-23T12:48:51Z</time>
      </trkpt>
      <trkpt lat="43.67005" lon="6.12027">
        <ele>577</ele>
        <time>2011-01-23T12:48:53Z</time>
      </trkpt>
      <trkpt lat="43.67" lon="6.12028">
        <ele>577</ele>
        <time>2011-01-23T12:48:57Z</time>
      </trkpt>
      <trkpt lat="43.66997" lon="6.12027">
        <ele>578</ele>
        <time>2011-01-23T12:49:00Z</time>
      </trkpt>
      <trkpt lat="43.66985" lon="6.12031">
        <ele>578</ele>
        <time>2011-01-23T12:49:12Z</time>
      </trkpt>
      <trkpt lat="43.66978" lon="6.12035">
        <ele>578</ele>
        <time>2011-01-23T12:49:19Z</time>
      </trkpt>
      <trkpt lat="43.66968" lon="6.12046">
        <ele>579</ele>
        <time>2011-01-23T12:49:35Z</time>
      </trkpt>
      <trkpt lat="43.66973" lon="6.12036">
        <ele>578</ele>
        <time>2011-01-23T12:52:49Z</time>
      </trkpt>
      <trkpt lat="43.66971" lon="6.12027">
        <ele>579</ele>
        <time>2011-01-23T12:53:00Z</time>
      </trkpt>
      <trkpt lat="43.66967" lon="6.12016">
        <ele>578</ele>
        <time>2011-01-23T12:53:12Z</time>
      </trkpt>
      <trkpt lat="43.66955" lon="6.12004">
        <ele>578</ele>
        <time>2011-01-23T12:53:23Z</time>
      </trkpt>
      <trkpt lat="43.6694" lon="6.12006">
        <ele>578</ele>
        <time>2011-01-23T12:53:38Z</time>
      </trkpt>
      <trkpt lat="43.66939" lon="6.12007">
        <ele>578</ele>
        <time>2011-01-23T12:53:39Z</time>
      </trkpt>
      <trkpt lat="43.66936" lon="6.12008">
        <ele>578</ele>
        <time>2011-01-23T12:53:42Z</time>
      </trkpt>
      <trkpt lat="43.6692" lon="6.12013">
        <ele>577</ele>
        <time>2011-01-23T12:53:58Z</time>
      </trkpt>
      <trkpt lat="43.66907" lon="6.12016">
        <ele>577</ele>
        <time>2011-01-23T12:54:11Z</time>
      </trkpt>
      <trkpt lat="43.66896" lon="6.12019">
        <ele>577</ele>
        <time>2011-01-23T12:54:22Z</time>
      </trkpt>
      <trkpt lat="43.66886" lon="6.12025">
        <ele>578</ele>
        <time>2011-01-23T12:54:33Z</time>
      </trkpt>
      <trkpt lat="43.66874" lon="6.12031">
        <ele>577</ele>
        <time>2011-01-23T12:54:45Z</time>
      </trkpt>
      <trkpt lat="43.66862" lon="6.12036">
        <ele>577</ele>
        <time>2011-01-23T12:54:58Z</time>
      </trkpt>
      <trkpt lat="43.66859" lon="6.12038">
        <ele>577</ele>
        <time>2011-01-23T12:55:01Z</time>
      </trkpt>
      <trkpt lat="43.66847" lon="6.12041">
        <ele>576</ele>
        <time>2011-01-23T12:55:13Z</time>
      </trkpt>
      <trkpt lat="43.66843" lon="6.12042">
        <ele>577</ele>
        <time>2011-01-23T12:55:16Z</time>
      </trkpt>
      <trkpt lat="43.66838" lon="6.12042">
        <ele>577</ele>
        <time>2011-01-23T12:55:19Z</time>
      </trkpt>
      <trkpt lat="43.6683" lon="6.12042">
        <ele>577</ele>
        <time>2011-01-23T12:55:27Z</time>
      </trkpt>
      <trkpt lat="43.66829" lon="6.12042">
        <ele>576</ele>
        <time>2011-01-23T12:55:28Z</time>
      </trkpt>
      <trkpt lat="43.66812" lon="6.12047">
        <ele>575</ele>
        <time>2011-01-23T12:55:42Z</time>
      </trkpt>
      <trkpt lat="43.66793" lon="6.12058">
        <ele>575</ele>
        <time>2011-01-23T12:55:56Z</time>
      </trkpt>
      <trkpt lat="43.66777" lon="6.12065">
        <ele>575</ele>
        <time>2011-01-23T12:56:10Z</time>
      </trkpt>
      <trkpt lat="43.66759" lon="6.12069">
        <ele>574</ele>
        <time>2011-01-23T12:56:26Z</time>
      </trkpt>
      <trkpt lat="43.66745" lon="6.12072">
        <ele>573</ele>
        <time>2011-01-23T12:56:39Z</time>
      </trkpt>
      <trkpt lat="43.66733" lon="6.12075">
        <ele>573</ele>
        <time>2011-01-23T12:56:51Z</time>
      </trkpt>
      <trkpt lat="43.66714" lon="6.12078">
        <ele>570</ele>
        <time>2011-01-23T12:57:06Z</time>
      </trkpt>
      <trkpt lat="43.66706" lon="6.12078">
        <ele>571</ele>
        <time>2011-01-23T12:57:13Z</time>
      </trkpt>
      <trkpt lat="43.66695" lon="6.12076">
        <ele>569</ele>
        <time>2011-01-23T12:57:24Z</time>
      </trkpt>
      <trkpt lat="43.66692" lon="6.12076">
        <ele>570</ele>
        <time>2011-01-23T12:57:26Z</time>
      </trkpt>
      <trkpt lat="43.66676" lon="6.12074">
        <ele>569</ele>
        <time>2011-01-23T12:57:39Z</time>
      </trkpt>
      <trkpt lat="43.66675" lon="6.12074">
        <ele>568</ele>
        <time>2011-01-23T12:57:40Z</time>
      </trkpt>
      <trkpt lat="43.66666" lon="6.12073">
        <ele>568</ele>
        <time>2011-01-23T12:57:48Z</time>
      </trkpt>
      <trkpt lat="43.66651" lon="6.12072">
        <ele>567</ele>
        <time>2011-01-23T12:58:02Z</time>
      </trkpt>
      <trkpt lat="43.66645" lon="6.1207">
        <ele>566</ele>
        <time>2011-01-23T12:58:08Z</time>
      </trkpt>
      <trkpt lat="43.66632" lon="6.12067">
        <ele>565</ele>
        <time>2011-01-23T12:58:21Z</time>
      </trkpt>
      <trkpt lat="43.66629" lon="6.12066">
        <ele>565</ele>
        <time>2011-01-23T12:58:24Z</time>
      </trkpt>
      <trkpt lat="43.66607" lon="6.12066">
        <ele>562</ele>
        <time>2011-01-23T12:58:40Z</time>
      </trkpt>
      <trkpt lat="43.66596" lon="6.12071">
        <ele>562</ele>
        <time>2011-01-23T12:58:53Z</time>
      </trkpt>
      <trkpt lat="43.66588" lon="6.12081">
        <ele>563</ele>
        <time>2011-01-23T12:59:04Z</time>
      </trkpt>
      <trkpt lat="43.66572" lon="6.12098">
        <ele>563</ele>
        <time>2011-01-23T12:59:17Z</time>
      </trkpt>
      <trkpt lat="43.6657" lon="6.121">
        <ele>562</ele>
        <time>2011-01-23T12:59:20Z</time>
      </trkpt>
      <trkpt lat="43.66567" lon="6.12107">
        <ele>562</ele>
        <time>2011-01-23T12:59:24Z</time>
      </trkpt>
      <trkpt lat="43.66555" lon="6.12124">
        <ele>563</ele>
        <time>2011-01-23T12:59:37Z</time>
      </trkpt>
      <trkpt lat="43.6655" lon="6.12136">
        <ele>563</ele>
        <time>2011-01-23T12:59:47Z</time>
      </trkpt>
      <trkpt lat="43.66544" lon="6.12146">
        <ele>564</ele>
        <time>2011-01-23T12:59:57Z</time>
      </trkpt>
      <trkpt lat="43.66537" lon="6.12158">
        <ele>564</ele>
        <time>2011-01-23T13:00:10Z</time>
      </trkpt>
      <trkpt lat="43.66533" lon="6.1217">
        <ele>564</ele>
        <time>2011-01-23T13:00:19Z</time>
      </trkpt>
      <trkpt lat="43.66528" lon="6.12183">
        <ele>564</ele>
        <time>2011-01-23T13:00:32Z</time>
      </trkpt>
      <trkpt lat="43.66522" lon="6.12194">
        <ele>565</ele>
        <time>2011-01-23T13:00:43Z</time>
      </trkpt>
      <trkpt lat="43.66516" lon="6.12211">
        <ele>565</ele>
        <time>2011-01-23T13:00:54Z</time>
      </trkpt>
      <trkpt lat="43.66501" lon="6.12241">
        <ele>566</ele>
        <time>2011-01-23T13:01:09Z</time>
      </trkpt>
      <trkpt lat="43.66495" lon="6.12257">
        <ele>566</ele>
        <time>2011-01-23T13:01:20Z</time>
      </trkpt>
      <trkpt lat="43.66488" lon="6.12272">
        <ele>567</ele>
        <time>2011-01-23T13:01:32Z</time>
      </trkpt>
      <trkpt lat="43.66484" lon="6.12286">
        <ele>567</ele>
        <time>2011-01-23T13:01:42Z</time>
      </trkpt>
      <trkpt lat="43.66473" lon="6.12303">
        <ele>567</ele>
        <time>2011-01-23T13:01:53Z</time>
      </trkpt>
      <trkpt lat="43.66468" lon="6.12316">
        <ele>567</ele>
        <time>2011-01-23T13:02:04Z</time>
      </trkpt>
      <trkpt lat="43.66467" lon="6.12318">
        <ele>567</ele>
        <time>2011-01-23T13:02:05Z</time>
      </trkpt>
      <trkpt lat="43.66461" lon="6.12333">
        <ele>568</ele>
        <time>2011-01-23T13:02:24Z</time>
      </trkpt>
      <trkpt lat="43.66448" lon="6.1236">
        <ele>568</ele>
        <time>2011-01-23T13:02:37Z</time>
      </trkpt>
      <trkpt lat="43.66436" lon="6.1238">
        <ele>568</ele>
        <time>2011-01-23T13:02:50Z</time>
      </trkpt>
      <trkpt lat="43.66432" lon="6.12396">
        <ele>570</ele>
        <time>2011-01-23T13:03:04Z</time>
      </trkpt>
      <trkpt lat="43.66432" lon="6.12404">
        <ele>570</ele>
        <time>2011-01-23T13:03:18Z</time>
      </trkpt>
      <trkpt lat="43.66433" lon="6.12401">
        <ele>570</ele>
        <time>2011-01-23T13:05:21Z</time>
      </trkpt>
      <trkpt lat="43.66432" lon="6.12402">
        <ele>566</ele>
        <time>2011-01-23T13:06:18Z</time>
      </trkpt>
      <trkpt lat="43.66432" lon="6.12402">
        <ele>570</ele>
        <time>2011-01-23T13:06:19Z</time>
      </trkpt>
      <trkpt lat="43.66433" lon="6.124">
        <ele>569</ele>
        <time>2011-01-23T13:07:13Z</time>
      </trkpt>
      <trkpt lat="43.66439" lon="6.12412">
        <ele>571</ele>
        <time>2011-01-23T13:08:29Z</time>
      </trkpt>
      <trkpt lat="43.66444" lon="6.12423">
        <ele>572</ele>
        <time>2011-01-23T13:08:40Z</time>
      </trkpt>
      <trkpt lat="43.66448" lon="6.12433">
        <ele>572</ele>
        <time>2011-01-23T13:08:53Z</time>
      </trkpt>
      <trkpt lat="43.66452" lon="6.12442">
        <ele>573</ele>
        <time>2011-01-23T13:09:04Z</time>
      </trkpt>
      <trkpt lat="43.66456" lon="6.12453">
        <ele>574</ele>
        <time>2011-01-23T13:09:16Z</time>
      </trkpt>
      <trkpt lat="43.66461" lon="6.12469">
        <ele>575</ele>
        <time>2011-01-23T13:09:31Z</time>
      </trkpt>
      <trkpt lat="43.66467" lon="6.12473">
        <ele>577</ele>
        <time>2011-01-23T13:09:42Z</time>
      </trkpt>
      <trkpt lat="43.66475" lon="6.12483">
        <ele>578</ele>
        <time>2011-01-23T13:09:54Z</time>
      </trkpt>
      <trkpt lat="43.66481" lon="6.12492">
        <ele>580</ele>
        <time>2011-01-23T13:10:04Z</time>
      </trkpt>
      <trkpt lat="43.66488" lon="6.12509">
        <ele>582</ele>
        <time>2011-01-23T13:10:22Z</time>
      </trkpt>
      <trkpt lat="43.66491" lon="6.12517">
        <ele>583</ele>
        <time>2011-01-23T13:10:31Z</time>
      </trkpt>
      <trkpt lat="43.66496" lon="6.12526">
        <ele>585</ele>
        <time>2011-01-23T13:10:43Z</time>
      </trkpt>
      <trkpt lat="43.66501" lon="6.12536">
        <ele>586</ele>
        <time>2011-01-23T13:10:58Z</time>
      </trkpt>
      <trkpt lat="43.66508" lon="6.12547">
        <ele>588</ele>
        <time>2011-01-23T13:11:17Z</time>
      </trkpt>
      <trkpt lat="43.66513" lon="6.12559">
        <ele>590</ele>
        <time>2011-01-23T13:11:27Z</time>
      </trkpt>
      <trkpt lat="43.6652" lon="6.12573">
        <ele>592</ele>
        <time>2011-01-23T13:11:42Z</time>
      </trkpt>
      <trkpt lat="43.66524" lon="6.12582">
        <ele>592</ele>
        <time>2011-01-23T13:11:52Z</time>
      </trkpt>
      <trkpt lat="43.66531" lon="6.12597">
        <ele>595</ele>
        <time>2011-01-23T13:12:06Z</time>
      </trkpt>
      <trkpt lat="43.66537" lon="6.1261">
        <ele>596</ele>
        <time>2011-01-23T13:12:21Z</time>
      </trkpt>
      <trkpt lat="43.66544" lon="6.12622">
        <ele>597</ele>
        <time>2011-01-23T13:12:36Z</time>
      </trkpt>
      <trkpt lat="43.66551" lon="6.12637">
        <ele>598</ele>
        <time>2011-01-23T13:12:50Z</time>
      </trkpt>
      <trkpt lat="43.6656" lon="6.12652">
        <ele>599</ele>
        <time>2011-01-23T13:13:03Z</time>
      </trkpt>
      <trkpt lat="43.66567" lon="6.12667">
        <ele>599</ele>
        <time>2011-01-23T13:13:15Z</time>
      </trkpt>
      <trkpt lat="43.66575" lon="6.12684">
        <ele>600</ele>
        <time>2011-01-23T13:13:29Z</time>
      </trkpt>
      <trkpt lat="43.66575" lon="6.12705">
        <ele>601</ele>
        <time>2011-01-23T13:13:42Z</time>
      </trkpt>
      <trkpt lat="43.66569" lon="6.12711">
        <ele>601</ele>
        <time>2011-01-23T13:13:54Z</time>
      </trkpt>
      <trkpt lat="43.66562" lon="6.12716">
        <ele>600</ele>
        <time>2011-01-23T13:14:05Z</time>
      </trkpt>
      <trkpt lat="43.66554" lon="6.1272">
        <ele>600</ele>
        <time>2011-01-23T13:14:13Z</time>
      </trkpt>
      <trkpt lat="43.66541" lon="6.12726">
        <ele>600</ele>
        <time>2011-01-23T13:14:27Z</time>
      </trkpt>
      <trkpt lat="43.66537" lon="6.12728">
        <ele>600</ele>
        <time>2011-01-23T13:14:31Z</time>
      </trkpt>
      <trkpt lat="43.66526" lon="6.12734">
        <ele>600</ele>
        <time>2011-01-23T13:14:43Z</time>
      </trkpt>
      <trkpt lat="43.6651" lon="6.12743">
        <ele>599</ele>
        <time>2011-01-23T13:14:57Z</time>
      </trkpt>
      <trkpt lat="43.66495" lon="6.1275">
        <ele>598</ele>
        <time>2011-01-23T13:15:11Z</time>
      </trkpt>
      <trkpt lat="43.66483" lon="6.12756">
        <ele>597</ele>
        <time>2011-01-23T13:15:24Z</time>
      </trkpt>
      <trkpt lat="43.66466" lon="6.12764">
        <ele>596</ele>
        <time>2011-01-23T13:15:41Z</time>
      </trkpt>
      <trkpt lat="43.66456" lon="6.12769">
        <ele>595</ele>
        <time>2011-01-23T13:15:53Z</time>
      </trkpt>
      <trkpt lat="43.6645" lon="6.12773">
        <ele>595</ele>
        <time>2011-01-23T13:15:59Z</time>
      </trkpt>
      <trkpt lat="43.66433" lon="6.12783">
        <ele>594</ele>
        <time>2011-01-23T13:16:16Z</time>
      </trkpt>
      <trkpt lat="43.66416" lon="6.12792">
        <ele>593</ele>
        <time>2011-01-23T13:16:31Z</time>
      </trkpt>
      <trkpt lat="43.66401" lon="6.12802">
        <ele>591</ele>
        <time>2011-01-23T13:16:47Z</time>
      </trkpt>
      <trkpt lat="43.66398" lon="6.12805">
        <ele>591</ele>
        <time>2011-01-23T13:16:51Z</time>
      </trkpt>
      <trkpt lat="43.66391" lon="6.12815">
        <ele>591</ele>
        <time>2011-01-23T13:17:04Z</time>
      </trkpt>
      <trkpt lat="43.66384" lon="6.12826">
        <ele>591</ele>
        <time>2011-01-23T13:17:17Z</time>
      </trkpt>
      <trkpt lat="43.66383" lon="6.12835">
        <ele>591</ele>
        <time>2011-01-23T13:17:29Z</time>
      </trkpt>
      <trkpt lat="43.66387" lon="6.12839">
        <ele>588</ele>
        <time>2011-01-23T13:17:44Z</time>
      </trkpt>
      <trkpt lat="43.66387" lon="6.12839">
        <ele>591</ele>
        <time>2011-01-23T13:17:45Z</time>
      </trkpt>
      <trkpt lat="43.66387" lon="6.12837">
        <ele>591</ele>
        <time>2011-01-23T13:18:13Z</time>
      </trkpt>
      <trkpt lat="43.66388" lon="6.1284">
        <ele>592</ele>
        <time>2011-01-23T13:18:49Z</time>
      </trkpt>
      <trkpt lat="43.66388" lon="6.12841">
        <ele>592</ele>
        <time>2011-01-23T13:19:17Z</time>
      </trkpt>
      <trkpt lat="43.66379" lon="6.12836">
        <ele>591</ele>
        <time>2011-01-23T13:19:31Z</time>
      </trkpt>
      <trkpt lat="43.66376" lon="6.12831">
        <ele>591</ele>
        <time>2011-01-23T13:19:44Z</time>
      </trkpt>
      <trkpt lat="43.66375" lon="6.12835">
        <ele>591</ele>
        <time>2011-01-23T13:20:02Z</time>
      </trkpt>
      <trkpt lat="43.66376" lon="6.12852">
        <ele>591</ele>
        <time>2011-01-23T13:20:15Z</time>
      </trkpt>
      <trkpt lat="43.66382" lon="6.12852">
        <ele>592</ele>
        <time>2011-01-23T13:20:26Z</time>
      </trkpt>
      <trkpt lat="43.66372" lon="6.12853">
        <ele>590</ele>
        <time>2011-01-23T13:26:20Z</time>
      </trkpt>
      <trkpt lat="43.66358" lon="6.12865">
        <ele>590</ele>
        <time>2011-01-23T13:26:36Z</time>
      </trkpt>
      <trkpt lat="43.66352" lon="6.12872">
        <ele>588</ele>
        <time>2011-01-23T13:26:46Z</time>
      </trkpt>
      <trkpt lat="43.66337" lon="6.12881">
        <ele>587</ele>
        <time>2011-01-23T13:27:03Z</time>
      </trkpt>
      <trkpt lat="43.66328" lon="6.12904">
        <ele>586</ele>
        <time>2011-01-23T13:27:19Z</time>
      </trkpt>
      <trkpt lat="43.66322" lon="6.12922">
        <ele>585</ele>
        <time>2011-01-23T13:27:34Z</time>
      </trkpt>
      <trkpt lat="43.66313" lon="6.12953">
        <ele>584</ele>
        <time>2011-01-23T13:27:52Z</time>
      </trkpt>
      <trkpt lat="43.66308" lon="6.12974">
        <ele>584</ele>
        <time>2011-01-23T13:28:06Z</time>
      </trkpt>
      <trkpt lat="43.66303" lon="6.13001">
        <ele>583</ele>
        <time>2011-01-23T13:28:23Z</time>
      </trkpt>
      <trkpt lat="43.66299" lon="6.13021">
        <ele>582</ele>
        <time>2011-01-23T13:28:34Z</time>
      </trkpt>
      <trkpt lat="43.66295" lon="6.13039">
        <ele>582</ele>
        <time>2011-01-23T13:28:48Z</time>
      </trkpt>
      <trkpt lat="43.66292" lon="6.13059">
        <ele>581</ele>
        <time>2011-01-23T13:29:02Z</time>
      </trkpt>
      <trkpt lat="43.66291" lon="6.1306">
        <ele>581</ele>
        <time>2011-01-23T13:29:03Z</time>
      </trkpt>
      <trkpt lat="43.66286" lon="6.13082">
        <ele>580</ele>
        <time>2011-01-23T13:29:18Z</time>
      </trkpt>
      <trkpt lat="43.66278" lon="6.13104">
        <ele>577</ele>
        <time>2011-01-23T13:29:33Z</time>
      </trkpt>
      <trkpt lat="43.6627" lon="6.13124">
        <ele>576</ele>
        <time>2011-01-23T13:29:47Z</time>
      </trkpt>
      <trkpt lat="43.66261" lon="6.13142">
        <ele>575</ele>
        <time>2011-01-23T13:30:02Z</time>
      </trkpt>
      <trkpt lat="43.66253" lon="6.13156">
        <ele>575</ele>
        <time>2011-01-23T13:30:15Z</time>
      </trkpt>
      <trkpt lat="43.66243" lon="6.1317">
        <ele>574</ele>
        <time>2011-01-23T13:30:26Z</time>
      </trkpt>
      <trkpt lat="43.66241" lon="6.13173">
        <ele>573</ele>
        <time>2011-01-23T13:30:29Z</time>
      </trkpt>
      <trkpt lat="43.66233" lon="6.13175">
        <ele>572</ele>
        <time>2011-01-23T13:30:36Z</time>
      </trkpt>
      <trkpt lat="43.66223" lon="6.13174">
        <ele>571</ele>
        <time>2011-01-23T13:30:44Z</time>
      </trkpt>
      <trkpt lat="43.66211" lon="6.13165">
        <ele>573</ele>
        <time>2011-01-23T13:30:59Z</time>
      </trkpt>
      <trkpt lat="43.66207" lon="6.13161">
        <ele>563</ele>
        <time>2011-01-23T13:31:04Z</time>
      </trkpt>
      <trkpt lat="43.66197" lon="6.13166">
        <ele>568</ele>
        <time>2011-01-23T13:31:17Z</time>
      </trkpt>
      <trkpt lat="43.66185" lon="6.13162">
        <ele>567</ele>
        <time>2011-01-23T13:31:34Z</time>
      </trkpt>
      <trkpt lat="43.66182" lon="6.13162">
        <ele>567</ele>
        <time>2011-01-23T13:31:38Z</time>
      </trkpt>
      <trkpt lat="43.66171" lon="6.13183">
        <ele>565</ele>
        <time>2011-01-23T13:31:55Z</time>
      </trkpt>
      <trkpt lat="43.66163" lon="6.13199">
        <ele>564</ele>
        <time>2011-01-23T13:32:09Z</time>
      </trkpt>
      <trkpt lat="43.66155" lon="6.13216">
        <ele>563</ele>
        <time>2011-01-23T13:32:23Z</time>
      </trkpt>
      <trkpt lat="43.66148" lon="6.13229">
        <ele>561</ele>
        <time>2011-01-23T13:32:34Z</time>
      </trkpt>
      <trkpt lat="43.6614" lon="6.13249">
        <ele>560</ele>
        <time>2011-01-23T13:32:48Z</time>
      </trkpt>
      <trkpt lat="43.66133" lon="6.13269">
        <ele>559</ele>
        <time>2011-01-23T13:33:01Z</time>
      </trkpt>
      <trkpt lat="43.66129" lon="6.13285">
        <ele>558</ele>
        <time>2011-01-23T13:33:13Z</time>
      </trkpt>
      <trkpt lat="43.66122" lon="6.13307">
        <ele>557</ele>
        <time>2011-01-23T13:33:27Z</time>
      </trkpt>
      <trkpt lat="43.66121" lon="6.1333">
        <ele>557</ele>
        <time>2011-01-23T13:33:42Z</time>
      </trkpt>
      <trkpt lat="43.6612" lon="6.13346">
        <ele>557</ele>
        <time>2011-01-23T13:33:52Z</time>
      </trkpt>
      <trkpt lat="43.66121" lon="6.13361">
        <ele>558</ele>
        <time>2011-01-23T13:34:03Z</time>
      </trkpt>
      <trkpt lat="43.66123" lon="6.13384">
        <ele>557</ele>
        <time>2011-01-23T13:34:17Z</time>
      </trkpt>
      <trkpt lat="43.66125" lon="6.13403">
        <ele>558</ele>
        <time>2011-01-23T13:34:31Z</time>
      </trkpt>
      <trkpt lat="43.66126" lon="6.13421">
        <ele>557</ele>
        <time>2011-01-23T13:34:42Z</time>
      </trkpt>
      <trkpt lat="43.66128" lon="6.13438">
        <ele>557</ele>
        <time>2011-01-23T13:34:53Z</time>
      </trkpt>
      <trkpt lat="43.6613" lon="6.13446">
        <ele>558</ele>
        <time>2011-01-23T13:34:59Z</time>
      </trkpt>
      <trkpt lat="43.66132" lon="6.13466">
        <ele>558</ele>
        <time>2011-01-23T13:35:13Z</time>
      </trkpt>
      <trkpt lat="43.66135" lon="6.13476">
        <ele>559</ele>
        <time>2011-01-23T13:35:25Z</time>
      </trkpt>
      <trkpt lat="43.66136" lon="6.1348">
        <ele>559</ele>
        <time>2011-01-23T13:35:28Z</time>
      </trkpt>
      <trkpt lat="43.6614" lon="6.13499">
        <ele>558</ele>
        <time>2011-01-23T13:35:41Z</time>
      </trkpt>
      <trkpt lat="43.66142" lon="6.13532">
        <ele>557</ele>
        <time>2011-01-23T13:35:55Z</time>
      </trkpt>
      <trkpt lat="43.66147" lon="6.1355">
        <ele>558</ele>
        <time>2011-01-23T13:36:07Z</time>
      </trkpt>
      <trkpt lat="43.66153" lon="6.13565">
        <ele>558</ele>
        <time>2011-01-23T13:36:18Z</time>
      </trkpt>
      <trkpt lat="43.66151" lon="6.13583">
        <ele>559</ele>
        <time>2011-01-23T13:36:28Z</time>
      </trkpt>
      <trkpt lat="43.66151" lon="6.13586">
        <ele>559</ele>
        <time>2011-01-23T13:36:30Z</time>
      </trkpt>
      <trkpt lat="43.66145" lon="6.13598">
        <ele>558</ele>
        <time>2011-01-23T13:36:40Z</time>
      </trkpt>
      <trkpt lat="43.66141" lon="6.13603">
        <ele>558</ele>
        <time>2011-01-23T13:36:44Z</time>
      </trkpt>
      <trkpt lat="43.66138" lon="6.13608">
        <ele>557</ele>
        <time>2011-01-23T13:36:48Z</time>
      </trkpt>
      <trkpt lat="43.66125" lon="6.1362">
        <ele>556</ele>
        <time>2011-01-23T13:36:59Z</time>
      </trkpt>
      <trkpt lat="43.66124" lon="6.13621">
        <ele>556</ele>
        <time>2011-01-23T13:37:00Z</time>
      </trkpt>
      <trkpt lat="43.66121" lon="6.13624">
        <ele>555</ele>
        <time>2011-01-23T13:37:03Z</time>
      </trkpt>
      <trkpt lat="43.66118" lon="6.13627">
        <ele>555</ele>
        <time>2011-01-23T13:37:08Z</time>
      </trkpt>
      <trkpt lat="43.66113" lon="6.13634">
        <ele>555</ele>
        <time>2011-01-23T13:37:14Z</time>
      </trkpt>
      <trkpt lat="43.66099" lon="6.13643">
        <ele>554</ele>
        <time>2011-01-23T13:37:28Z</time>
      </trkpt>
      <trkpt lat="43.66092" lon="6.13651">
        <ele>553</ele>
        <time>2011-01-23T13:37:38Z</time>
      </trkpt>
      <trkpt lat="43.66087" lon="6.13655">
        <ele>553</ele>
        <time>2011-01-23T13:37:43Z</time>
      </trkpt>
      <trkpt lat="43.66074" lon="6.13663">
        <ele>551</ele>
        <time>2011-01-23T13:37:55Z</time>
      </trkpt>
      <trkpt lat="43.66064" lon="6.13669">
        <ele>550</ele>
        <time>2011-01-23T13:38:05Z</time>
      </trkpt>
      <trkpt lat="43.66053" lon="6.13674">
        <ele>550</ele>
        <time>2011-01-23T13:38:16Z</time>
      </trkpt>
      <trkpt lat="43.66043" lon="6.1367">
        <ele>549</ele>
        <time>2011-01-23T13:38:25Z</time>
      </trkpt>
      <trkpt lat="43.66031" lon="6.1366">
        <ele>548</ele>
        <time>2011-01-23T13:38:40Z</time>
      </trkpt>
      <trkpt lat="43.66021" lon="6.13658">
        <ele>547</ele>
        <time>2011-01-23T13:38:50Z</time>
      </trkpt>
      <trkpt lat="43.66014" lon="6.13655">
        <ele>546</ele>
        <time>2011-01-23T13:39:17Z</time>
      </trkpt>
      <trkpt lat="43.66004" lon="6.13657">
        <ele>545</ele>
        <time>2011-01-23T13:41:08Z</time>
      </trkpt>
      <trkpt lat="43.65988" lon="6.13649">
        <ele>543</ele>
        <time>2011-01-23T13:41:25Z</time>
      </trkpt>
      <trkpt lat="43.65985" lon="6.13644">
        <ele>542</ele>
        <time>2011-01-23T13:41:35Z</time>
      </trkpt>
      <trkpt lat="43.6597" lon="6.13634">
        <ele>540</ele>
        <time>2011-01-23T13:41:51Z</time>
      </trkpt>
      <trkpt lat="43.65963" lon="6.13631">
        <ele>538</ele>
        <time>2011-01-23T13:42:00Z</time>
      </trkpt>
      <trkpt lat="43.65962" lon="6.1363">
        <ele>539</ele>
        <time>2011-01-23T13:42:01Z</time>
      </trkpt>
      <trkpt lat="43.65949" lon="6.13625">
        <ele>537</ele>
        <time>2011-01-23T13:42:12Z</time>
      </trkpt>
      <trkpt lat="43.65944" lon="6.13608">
        <ele>538</ele>
        <time>2011-01-23T13:42:31Z</time>
      </trkpt>
      <trkpt lat="43.65946" lon="6.1359">
        <ele>539</ele>
        <time>2011-01-23T13:42:45Z</time>
      </trkpt>
      <trkpt lat="43.65951" lon="6.13573">
        <ele>540</ele>
        <time>2011-01-23T13:42:58Z</time>
      </trkpt>
      <trkpt lat="43.65957" lon="6.13556">
        <ele>541</ele>
        <time>2011-01-23T13:43:10Z</time>
      </trkpt>
      <trkpt lat="43.65965" lon="6.13543">
        <ele>542</ele>
        <time>2011-01-23T13:43:21Z</time>
      </trkpt>
      <trkpt lat="43.65971" lon="6.13525">
        <ele>542</ele>
        <time>2011-01-23T13:43:33Z</time>
      </trkpt>
      <trkpt lat="43.65976" lon="6.13507">
        <ele>542</ele>
        <time>2011-01-23T13:43:45Z</time>
      </trkpt>
      <trkpt lat="43.65978" lon="6.13486">
        <ele>542</ele>
        <time>2011-01-23T13:43:58Z</time>
      </trkpt>
      <trkpt lat="43.65981" lon="6.13469">
        <ele>542</ele>
        <time>2011-01-23T13:44:08Z</time>
      </trkpt>
      <trkpt lat="43.6598" lon="6.13449">
        <ele>543</ele>
        <time>2011-01-23T13:44:21Z</time>
      </trkpt>
      <trkpt lat="43.65977" lon="6.13427">
        <ele>542</ele>
        <time>2011-01-23T13:44:34Z</time>
      </trkpt>
      <trkpt lat="43.65974" lon="6.13403">
        <ele>542</ele>
        <time>2011-01-23T13:44:48Z</time>
      </trkpt>
      <trkpt lat="43.65974" lon="6.13385">
        <ele>541</ele>
        <time>2011-01-23T13:45:00Z</time>
      </trkpt>
      <trkpt lat="43.65972" lon="6.13365">
        <ele>542</ele>
        <time>2011-01-23T13:45:12Z</time>
      </trkpt>
      <trkpt lat="43.65973" lon="6.13342">
        <ele>541</ele>
        <time>2011-01-23T13:45:27Z</time>
      </trkpt>
      <trkpt lat="43.65976" lon="6.13318">
        <ele>541</ele>
        <time>2011-01-23T13:45:41Z</time>
      </trkpt>
      <trkpt lat="43.65975" lon="6.13298">
        <ele>542</ele>
        <time>2011-01-23T13:45:54Z</time>
      </trkpt>
      <trkpt lat="43.65974" lon="6.13295">
        <ele>542</ele>
        <time>2011-01-23T13:45:56Z</time>
      </trkpt>
      <trkpt lat="43.65971" lon="6.13279">
        <ele>542</ele>
        <time>2011-01-23T13:46:06Z</time>
      </trkpt>
      <trkpt lat="43.65971" lon="6.13256">
        <ele>542</ele>
        <time>2011-01-23T13:46:20Z</time>
      </trkpt>
      <trkpt lat="43.6597" lon="6.13239">
        <ele>541</ele>
        <time>2011-01-23T13:46:32Z</time>
      </trkpt>
      <trkpt lat="43.65976" lon="6.1322">
        <ele>542</ele>
        <time>2011-01-23T13:46:45Z</time>
      </trkpt>
      <trkpt lat="43.65976" lon="6.13198">
        <ele>541</ele>
        <time>2011-01-23T13:46:58Z</time>
      </trkpt>
      <trkpt lat="43.65975" lon="6.1318">
        <ele>541</ele>
        <time>2011-01-23T13:47:08Z</time>
      </trkpt>
      <trkpt lat="43.65974" lon="6.13162">
        <ele>541</ele>
        <time>2011-01-23T13:47:19Z</time>
      </trkpt>
      <trkpt lat="43.65971" lon="6.13139">
        <ele>540</ele>
        <time>2011-01-23T13:47:33Z</time>
      </trkpt>
      <trkpt lat="43.65971" lon="6.13119">
        <ele>541</ele>
        <time>2011-01-23T13:47:45Z</time>
      </trkpt>
      <trkpt lat="43.65971" lon="6.13117">
        <ele>541</ele>
        <time>2011-01-23T13:47:46Z</time>
      </trkpt>
      <trkpt lat="43.65971" lon="6.13103">
        <ele>540</ele>
        <time>2011-01-23T13:47:54Z</time>
      </trkpt>
      <trkpt lat="43.65971" lon="6.13084">
        <ele>541</ele>
        <time>2011-01-23T13:48:07Z</time>
      </trkpt>
      <trkpt lat="43.65967" lon="6.13062">
        <ele>541</ele>
        <time>2011-01-23T13:48:30Z</time>
      </trkpt>
      <trkpt lat="43.65968" lon="6.13048">
        <ele>541</ele>
        <time>2011-01-23T13:48:43Z</time>
      </trkpt>
      <trkpt lat="43.65967" lon="6.13044">
        <ele>541</ele>
        <time>2011-01-23T13:49:02Z</time>
      </trkpt>
    </trkseg>
  </trk>
</gpx>